Data Archive--February, 2003

Date Time Heat Index Current Temp Wind Chill High Temp Low Temp Humidity Dew Point Wind Speed Gust Wind Direction Rain Barometer
02/01/2003 12:00 a 34.2 34.2 34.2 34.2 34.1 95 32.9 0.0 0.0 --- 0.00 29.936
02/01/2003 12:30 a 34.1 34.1 34.1 34.2 34.0 95 32.8 0.0 0.0 --- 0.00 29.915
02/01/2003 1:00 a 34.0 34.0 34.0 34.1 34.0 96 33.0 0.0 1.0 WNW 0.00 29.904
02/01/2003 1:30 a 34.0 34.0 34.0 34.1 34.0 96 33.0 0.0 1.0 --- 0.00 29.881
02/01/2003 2:00 a 34.1 34.1 34.1 34.2 34.0 96 33.1 0.0 1.0 WNW 0.00 29.879
02/01/2003 2:30 a 34.1 34.1 34.1 34.2 34.1 95 32.8 0.0 0.0 --- 0.00 29.872
02/01/2003 3:00 a 34.1 34.1 34.1 34.2 34.1 95 32.8 0.0 1.0 WNW 0.00 29.859
02/01/2003 3:30 a 34.1 34.1 34.1 34.1 34.0 96 33.1 0.0 0.0 --- 0.00 29.855
02/01/2003 4:00 a 34.1 34.1 34.1 34.2 34.1 96 33.1 0.0 1.0 WNW 0.00 29.838
02/01/2003 4:30 a 34.2 34.2 34.2 34.3 34.1 96 33.2 0.0 2.0 WNW 0.00 29.834
02/01/2003 5:00 a 34.3 34.3 34.3 34.4 34.3 95 33.0 0.0 2.0 WNW 0.00 29.821
02/01/2003 5:30 a 34.3 34.3 34.3 34.4 34.3 96 33.3 0.0 2.0 WNW 0.00 29.820
02/01/2003 6:00 a 34.3 34.3 34.3 34.3 34.3 96 33.3 1.0 3.0 NW 0.00 29.807
02/01/2003 6:30 a 34.3 34.3 34.3 34.3 34.3 96 33.3 1.0 4.0 NW 0.00 29.804
02/01/2003 7:00 a 34.3 34.3 34.3 34.3 34.2 96 33.3 0.0 3.0 NW 0.00 29.801
02/01/2003 7:30 a 34.3 34.3 34.3 34.3 34.2 95 33.0 0.0 2.0 NNW 0.00 29.787
02/01/2003 8:00 a 34.3 34.3 34.3 34.3 34.2 96 33.3 0.0 3.0 NNW 0.00 29.782
02/01/2003 8:30 a 34.3 34.3 34.3 34.4 34.3 96 33.3 0.0 2.0 NNW 0.00 29.776
02/01/2003 9:00 a 34.5 34.5 34.5 34.6 34.4 96 33.5 0.0 2.0 NNW 0.00 29.780
02/01/2003 9:30 a 34.7 34.7 34.7 34.9 34.6 95 33.4 0.0 2.0 NNW 0.01 29.757
02/01/2003 10:00 a 35.0 35.0 35.0 35.1 34.9 96 34.0 0.0 2.0 N 0.00 29.760
02/01/2003 10:30 a 35.1 35.1 35.1 35.1 35.0 95 33.8 0.0 3.0 NNW 0.00 29.753
02/01/2003 11:00 a 35.1 35.1 35.1 35.2 35.1 96 34.1 0.0 2.0 NNW 0.00 29.737
02/01/2003 11:30 a 35.3 35.3 35.3 35.5 35.2 96 34.3 0.0 3.0 NNW 0.00 29.703
02/01/2003 12:00 p 35.7 35.7 35.7 35.8 35.5 96 34.7 0.0 3.0 NNW 0.00 29.687
02/01/2003 12:30 p 35.5 35.5 35.5 35.7 35.4 95 34.2 0.0 3.0 NNW 0.00 29.680
02/01/2003 1:00 p 35.3 35.3 35.3 35.4 35.2 96 34.3 0.0 3.0 NW 0.00 29.672
02/01/2003 1:30 p 35.3 35.3 35.3 35.4 35.2 95 34.0 0.0 3.0 NW 0.00 29.678
02/01/2003 2:00 p 35.2 35.2 35.2 35.3 35.2 96 34.2 0.0 2.0 NW 0.00 29.658
02/01/2003 2:30 p 35.3 35.3 35.3 35.3 35.2 95 34.0 0.0 3.0 WNW 0.00 29.655
02/01/2003 3:00 p 35.2 35.2 35.2 35.3 35.0 95 33.9 0.0 2.0 WNW 0.00 29.637
02/01/2003 3:30 p 35.2 35.2 35.2 35.2 35.1 96 34.2 0.0 3.0 WNW 0.00 29.612
02/01/2003 4:00 p 35.1 35.1 35.1 35.2 34.9 95 33.8 0.0 4.0 WNW 0.00 29.616
02/01/2003 4:30 p 34.8 34.8 34.8 34.9 34.7 95 33.5 0.0 4.0 W 0.00 29.618
02/01/2003 5:00 p 34.7 34.7 34.7 34.8 34.6 96 33.7 0.0 3.0 SSW 0.00 29.616
02/01/2003 5:30 p 34.7 34.7 34.7 34.8 34.6 96 33.7 0.0 5.0 WSW 0.00 29.617
02/01/2003 6:00 p 34.8 34.8 34.8 34.9 34.7 96 33.8 0.0 4.0 SSW 0.00 29.612
02/01/2003 6:30 p 34.9 34.9 34.9 34.9 34.8 96 33.9 0.0 3.0 SSW 0.00 29.603
02/01/2003 7:00 p 34.9 34.9 34.9 35.0 34.8 96 33.9 0.0 3.0 S 0.00 29.601
02/01/2003 7:30 p 35.0 35.0 35.0 35.1 34.9 96 34.0 0.0 2.0 S 0.00 29.584
02/01/2003 8:00 p 35.2 35.2 35.2 35.3 35.0 96 34.2 0.0 3.0 S 0.00 29.578
02/01/2003 8:30 p 34.6 34.6 34.6 35.0 34.2 96 33.6 0.0 0.0 --- 0.00 29.581
02/01/2003 9:00 p 34.1 34.1 34.1 34.3 33.9 95 32.8 0.0 0.0 --- 0.00 29.580
02/01/2003 9:30 p 32.4 32.4 32.4 33.9 31.3 95 31.1 0.0 0.0 --- 0.00 29.583
02/01/2003 10:00 p 30.5 30.5 30.5 31.3 29.4 94 29.0 0.0 0.0 --- 0.00 29.584
02/01/2003 10:30 p 29.1 29.1 29.1 29.5 28.8 94 27.6 0.0 0.0 --- 0.00 29.580
02/01/2003 11:00 p 29.8 29.8 29.8 31.0 29.1 95 28.5 0.0 0.0 --- 0.00 29.578
02/01/2003 11:30 p 30.9 30.9 30.9 31.2 30.4 95 29.6 0.0 0.0 --- 0.00 29.574
02/02/2003 12:00 a 31.5 31.5 31.5 32.0 30.6 95 30.2 0.0 0.0 --- 0.00 29.570
02/02/2003 12:30 a 32.1 32.1 32.1 32.3 31.9 95 30.8 0.0 0.0 --- 0.00 29.562
02/02/2003 1:00 a 32.9 32.9 32.9 33.2 32.3 96 31.9 0.0 0.0 --- 0.00 29.558
02/02/2003 1:30 a 33.0 33.0 33.0 33.2 32.8 96 32.0 0.0 0.0 --- 0.00 29.547
02/02/2003 2:00 a 32.9 32.9 32.9 33.1 32.7 96 31.9 0.0 0.0 --- 0.00 29.547
02/02/2003 2:30 a 33.3 33.3 33.3 33.5 33.1 96 32.3 0.0 2.0 S 0.00 29.541
02/02/2003 3:00 a 33.3 33.3 33.3 33.5 33.2 96 32.3 0.0 2.0 S 0.00 29.525
02/02/2003 3:30 a 33.1 33.1 33.1 34.0 32.6 96 32.1 0.0 6.0 SSE 0.00 29.527
02/02/2003 4:00 a 35.1 35.1 35.1 35.4 34.1 95 33.8 1.0 6.0 SSE 0.00 29.519
02/02/2003 4:30 a 35.5 35.5 35.5 35.7 35.2 95 34.2 1.0 9.0 SSE 0.00 29.531
02/02/2003 5:00 a 35.6 35.6 35.6 36.0 35.4 94 34.0 1.0 6.0 SSE 0.00 29.531
02/02/2003 5:30 a 36.1 36.1 36.1 36.7 35.6 94 34.5 2.0 8.0 SSE 0.00 29.536
02/02/2003 6:00 a 35.9 35.9 35.9 36.3 35.4 93 34.1 2.0 14.0 SSE 0.00 29.539
02/02/2003 6:30 a 36.4 36.4 36.4 36.7 35.9 92 34.3 2.0 7.0 SSE 0.00 29.546
02/02/2003 7:00 a 37.1 37.1 37.1 37.3 36.7 91 34.7 1.0 8.0 SSE 0.00 29.550
02/02/2003 7:30 a 36.6 36.6 36.6 37.1 36.3 87 33.1 2.0 8.0 SSE 0.00 29.550
02/02/2003 8:00 a 38.2 38.2 38.2 40.9 36.9 81 32.9 3.0 11.0 SSE 0.00 29.554
02/02/2003 8:30 a 44.0 44.0 44.0 46.5 40.9 69 34.5 3.0 10.0 SSE 0.00 29.558
02/02/2003 9:00 a 47.1 47.1 47.1 48.2 46.0 61 34.4 3.0 14.0 SSE 0.00 29.554
02/02/2003 9:30 a 45.9 45.9 45.9 48.2 43.5 63 34.0 4.0 13.0 SSE 0.00 29.565
02/02/2003 10:00 a 45.1 45.1 45.1 46.1 44.1 65 34.1 3.0 17.0 SSE 0.00 29.557
02/02/2003 10:30 a 43.3 43.3 43.3 45.2 42.4 66 32.7 3.0 12.0 SSE 0.00 29.568
02/02/2003 11:00 a 43.4 43.4 43.4 44.0 43.0 63 31.7 3.0 14.0 SSE 0.00 29.553
02/02/2003 11:30 a 43.9 43.9 43.9 44.3 43.7 61 31.3 3.0 11.0 SSE 0.00 29.546
02/02/2003 12:00 p 43.5 43.5 43.5 44.2 43.1 60 30.6 3.0 9.0 SSE 0.00 29.540
02/02/2003 12:30 p 43.5 43.5 43.5 43.7 43.1 59 30.1 3.0 17.0 SSE 0.00 29.535
02/02/2003 1:00 p 43.9 43.9 43.9 44.5 43.5 55 28.8 4.0 13.0 SSE 0.00 29.525
02/02/2003 1:30 p 45.8 45.8 45.8 46.7 44.5 51 28.7 4.0 18.0 SSE 0.00 29.514
02/02/2003 2:00 p 45.1 45.1 42.6 46.5 43.7 53 29.0 5.0 19.0 SSE 0.00 29.517
02/02/2003 2:30 p 44.1 44.1 41.5 44.4 43.6 48 25.7 5.0 19.0 SSE 0.00 29.531
02/02/2003 3:00 p 43.0 43.0 40.4 44.2 42.1 52 26.6 5.0 16.0 SSE 0.00 29.547
02/02/2003 3:30 p 41.9 41.9 41.9 42.1 41.7 53 26.0 3.0 13.0 SSE 0.00 29.552
02/02/2003 4:00 p 41.1 41.1 41.1 41.8 40.3 53 25.3 4.0 16.0 SSE 0.00 29.553
02/02/2003 4:30 p 40.1 40.1 40.1 40.3 39.7 54 24.8 4.0 13.0 SSE 0.00 29.569
02/02/2003 5:00 p 39.7 39.7 39.7 40.2 39.0 56 25.3 3.0 10.0 SSE 0.00 29.570
02/02/2003 5:30 p 38.4 38.4 38.4 39.0 37.7 57 24.5 3.0 16.0 SSE 0.00 29.572
02/02/2003 6:00 p 37.1 37.1 37.1 37.7 36.8 58 23.7 2.0 12.0 SSE 0.00 29.580
02/02/2003 6:30 p 37.0 37.0 37.0 37.3 36.8 60 24.4 2.0 8.0 SSE 0.00 29.599
02/02/2003 7:00 p 37.1 37.1 37.1 37.4 36.6 59 24.1 2.0 7.0 SSE 0.00 29.600
02/02/2003 7:30 p 37.8 37.8 37.8 38.0 37.2 58 24.4 3.0 11.0 SSE 0.00 29.611
02/02/2003 8:00 p 38.1 38.1 38.1 38.3 37.8 60 25.5 3.0 12.0 SSE 0.00 29.628
02/02/2003 8:30 p 37.3 37.3 37.3 38.0 36.9 60 24.7 2.0 8.0 SSE 0.00 29.631
02/02/2003 9:00 p 37.1 37.1 37.1 37.3 36.9 62 25.3 1.0 6.0 SSE 0.00 29.636
02/02/2003 9:30 p 37.0 37.0 37.0 37.4 36.7 63 25.6 1.0 9.0 SSE 0.00 29.635
02/02/2003 10:00 p 36.8 36.8 36.8 37.0 36.5 64 25.8 1.0 5.0 SSE 0.00 29.640
02/02/2003 10:30 p 37.1 37.1 37.1 37.6 36.5 63 25.7 1.0 6.0 SSE 0.00 29.654
02/02/2003 11:00 p 37.8 37.8 37.8 38.0 37.6 63 26.4 1.0 8.0 SSE 0.00 29.659
02/02/2003 11:30 p 38.2 38.2 38.2 38.3 37.8 63 26.7 1.0 6.0 SSE 0.00 29.659
02/03/2003 12:00 a 38.2 38.2 38.2 38.3 38.1 64 27.1 1.0 8.0 SSE 0.00 29.678
02/03/2003 12:30 a 38.1 38.1 38.1 38.2 38.0 64 27.0 1.0 8.0 SSE 0.00 29.676
02/03/2003 1:00 a 37.8 37.8 37.8 38.0 37.5 65 27.1 1.0 9.0 SSE 0.00 29.684
02/03/2003 1:30 a 36.8 36.8 36.8 37.5 36.2 67 26.9 0.0 5.0 SSE 0.00 29.695
02/03/2003 2:00 a 35.7 35.7 35.7 36.3 35.1 69 26.5 0.0 4.0 ESE 0.00 29.707
02/03/2003 2:30 a 33.9 33.9 33.9 35.1 32.7 73 26.2 0.0 2.0 S 0.00 29.712
02/03/2003 3:00 a 32.7 32.7 32.7 33.4 32.1 72 24.7 0.0 4.0 S 0.00 29.720
02/03/2003 3:30 a 32.1 32.1 32.1 33.3 31.0 77 25.7 0.0 3.0 SSE 0.00 29.731
02/03/2003 4:00 a 30.8 30.8 30.8 31.0 30.7 78 24.8 0.0 1.0 --- 0.00 29.736
02/03/2003 4:30 a 30.5 30.5 30.5 30.8 29.7 80 25.1 0.0 0.0 --- 0.00 29.739
02/03/2003 5:00 a 29.6 29.6 29.6 29.9 29.4 81 24.5 0.0 0.0 --- 0.00 29.754
02/03/2003 5:30 a 29.5 29.5 29.5 29.9 28.4 83 25.0 0.0 0.0 --- 0.00 29.761
02/03/2003 6:00 a 27.6 27.6 27.6 28.4 27.1 86 24.0 0.0 0.0 --- 0.00 29.772
02/03/2003 6:30 a 26.8 26.8 26.8 27.2 26.3 88 23.7 0.0 0.0 --- 0.00 29.775
02/03/2003 7:00 a 26.3 26.3 26.3 27.1 25.7 87 23.0 0.0 0.0 --- 0.00 29.784
02/03/2003 7:30 a 26.2 26.2 26.2 27.8 25.5 88 23.1 0.0 0.0 --- 0.00 29.801
02/03/2003 8:00 a 29.4 29.4 29.4 33.1 27.8 80 24.0 0.0 0.0 --- 0.00 29.799
02/03/2003 8:30 a 36.9 36.9 36.9 39.0 32.9 67 27.0 0.0 0.0 --- 0.00 29.820
02/03/2003 9:00 a 43.0 43.0 43.0 46.2 38.3 50 25.6 0.0 3.0 SSE 0.00 29.823
02/03/2003 9:30 a 44.3 44.3 44.3 46.5 41.3 56 29.6 1.0 3.0 S 0.00 29.820
02/03/2003 10:00 a 44.1 44.1 44.1 45.4 42.1 51 27.1 0.0 4.0 SSE 0.00 29.797
02/03/2003 10:30 a 43.9 43.9 43.9 44.7 43.4 53 27.9 1.0 6.0 SSE 0.00 29.794
02/03/2003 11:00 a 46.4 46.4 46.4 49.2 43.7 43 25.1 1.0 4.0 SSE 0.00 29.792
02/03/2003 11:30 a 50.3 50.3 50.3 52.2 47.8 38 25.7 1.0 3.0 S 0.00 29.777
02/03/2003 12:00 p 54.3 54.3 54.3 56.7 51.8 33 25.8 0.0 3.0 SSE 0.00 29.752
02/03/2003 12:30 p 55.6 55.6 55.6 56.7 54.4 33 27.0 1.0 4.0 S 0.00 29.733
02/03/2003 1:00 p 50.8 50.8 50.8 54.4 49.6 42 28.6 0.0 4.0 NW 0.00 29.723
02/03/2003 1:30 p 49.6 49.6 49.6 50.0 49.4 41 26.9 0.0 3.0 SE 0.00 29.700
02/03/2003 2:00 p 49.4 49.4 49.4 49.6 49.3 41 26.7 0.0 3.0 NNE 0.00 29.698
02/03/2003 2:30 p 49.3 49.3 49.3 49.5 49.0 41 26.6 0.0 3.0 NE 0.00 29.693
02/03/2003 3:00 p 49.1 49.1 49.1 49.2 48.9 42 27.0 0.0 3.0 NNE 0.00 29.699
02/03/2003 3:30 p 49.3 49.3 49.3 49.6 48.9 41 26.6 0.0 2.0 E 0.00 29.690
02/03/2003 4:00 p 49.0 49.0 49.0 49.4 48.7 42 26.9 0.0 5.0 NNE 0.00 29.705
02/03/2003 4:30 p 47.4 47.4 47.4 48.7 46.1 47 28.2 0.0 2.0 NNE 0.00 29.703
02/03/2003 5:00 p 46.0 46.0 46.0 46.2 45.9 48 27.4 0.0 2.0 NNE 0.00 29.700
02/03/2003 5:30 p 45.4 45.4 45.4 45.9 44.7 48 26.9 0.0 0.0 --- 0.00 29.702
02/03/2003 6:00 p 44.2 44.2 44.2 44.8 43.9 51 27.2 0.0 0.0 --- 0.00 29.712
02/03/2003 6:30 p 43.9 43.9 43.9 44.2 43.8 53 27.9 0.0 2.0 NNE 0.00 29.717
02/03/2003 7:00 p 43.6 43.6 43.6 44.1 43.2 56 29.0 0.0 1.0 NNE 0.00 29.712
02/03/2003 7:30 p 43.2 43.2 43.2 43.5 42.8 58 29.4 0.0 4.0 NNE 0.00 29.707
02/03/2003 8:00 p 42.4 42.4 42.4 42.8 42.2 59 29.1 0.0 2.0 NE 0.00 29.686
02/03/2003 8:30 p 42.1 42.1 42.1 42.2 41.9 60 29.2 0.0 0.0 --- 0.00 29.687
02/03/2003 9:00 p 41.4 41.4 41.4 41.9 40.6 63 29.8 0.0 0.0 --- 0.00 29.677
02/03/2003 9:30 p 39.9 39.9 39.9 40.6 38.9 66 29.5 0.0 2.0 NE 0.00 29.668
02/03/2003 10:00 p 39.2 39.2 39.2 39.5 38.9 65 28.4 0.0 0.0 --- 0.00 29.644
02/03/2003 10:30 p 39.6 39.6 39.6 39.7 39.4 66 29.2 0.0 2.0 NE 0.00 29.625
02/03/2003 11:00 p 39.3 39.3 39.3 39.5 38.7 66 28.9 0.0 1.0 --- 0.00 29.633
02/03/2003 11:30 p 38.0 38.0 38.0 38.7 37.7 67 28.0 0.0 0.0 --- 0.00 29.626
02/04/2003 12:00 a 37.6 37.6 37.6 37.7 37.5 66 27.3 0.0 0.0 --- 0.00 29.615
02/04/2003 12:30 a 37.4 37.4 37.4 37.5 37.3 65 26.7 0.0 1.0 NE 0.00 29.602
02/04/2003 1:00 a 37.6 37.6 37.6 37.8 37.4 66 27.3 0.0 1.0 --- 0.00 29.576
02/04/2003 1:30 a 36.8 36.8 36.8 37.7 35.9 70 27.9 0.0 0.0 --- 0.00 29.562
02/04/2003 2:00 a 35.2 35.2 35.2 35.9 34.8 73 27.4 0.0 0.0 --- 0.00 29.559
02/04/2003 2:30 a 35.6 35.6 35.6 35.7 35.3 74 28.1 0.0 0.0 --- 0.00 29.539
02/04/2003 3:00 a 35.6 35.6 35.6 36.3 35.4 75 28.5 0.0 2.0 NE 0.00 29.516
02/04/2003 3:30 a 36.8 36.8 36.8 37.4 36.3 86 33.0 0.0 2.0 NE 0.00 29.496
02/04/2003 4:00 a 37.2 37.2 37.2 37.8 36.9 90 34.5 0.0 2.0 NE 0.00 29.451
02/04/2003 4:30 a 38.6 38.6 38.6 39.5 37.8 92 36.5 0.0 3.0 NNE 0.00 29.438
02/04/2003 5:00 a 39.9 39.9 39.9 40.4 39.5 93 38.0 0.0 2.0 NNE 0.01 29.443
02/04/2003 5:30 a 40.4 40.4 40.4 40.6 40.3 94 38.8 0.0 2.0 NNE 0.00 29.371
02/04/2003 6:00 a 40.8 40.8 40.8 40.9 40.5 94 39.2 0.0 2.0 NNE 0.00 29.385
02/04/2003 6:30 a 40.6 40.6 40.6 40.8 40.4 94 39.0 0.0 2.0 NNE 0.00 29.378
02/04/2003 7:00 a 40.3 40.3 40.3 40.4 40.1 95 39.0 0.0 2.0 NNE 0.00 29.359
02/04/2003 7:30 a 40.1 40.1 40.1 40.2 39.9 95 38.8 0.0 2.0 ENE 0.00 29.307
02/04/2003 8:00 a 40.0 40.0 40.0 40.3 39.9 94 38.4 0.0 2.0 ENE 0.00 29.328
02/04/2003 8:30 a 39.9 39.9 39.9 40.4 39.8 95 38.6 0.0 0.0 --- 0.00 29.325
02/04/2003 9:00 a 40.9 40.9 40.9 41.4 40.3 95 39.6 0.0 0.0 --- 0.00 29.292
02/04/2003 9:30 a 42.0 42.0 42.0 42.3 41.3 95 40.7 0.0 0.0 --- 0.00 29.285
02/04/2003 10:00 a 42.2 42.2 42.2 42.3 42.1 95 40.9 0.0 0.0 --- 0.01 29.248
02/04/2003 10:30 a 42.3 42.3 42.3 42.4 42.1 95 41.0 0.0 0.0 --- 0.03 29.235
02/04/2003 11:00 a 42.5 42.5 42.5 42.6 42.4 96 41.4 0.0 0.0 --- 0.04 29.221
02/04/2003 11:30 a 42.8 42.8 42.8 43.4 42.5 96 41.7 0.0 0.0 --- 0.03 29.198
02/04/2003 12:00 p 43.7 43.7 43.7 43.8 43.4 96 42.6 0.0 0.0 --- 0.02 29.169
02/04/2003 12:30 p 44.0 44.0 44.0 44.1 43.8 96 42.9 0.0 4.0 ENE 0.00 29.152
02/04/2003 1:00 p 44.0 44.0 44.0 44.3 43.8 96 42.9 1.0 5.0 SSE 0.04 29.186
02/04/2003 1:30 p 44.4 44.4 44.4 44.9 43.8 95 43.1 2.0 9.0 S 0.00 29.186
02/04/2003 2:00 p 43.2 43.2 43.2 43.8 42.8 94 41.6 2.0 11.0 S 0.00 29.211
02/04/2003 2:30 p 43.1 43.1 43.1 43.9 42.6 90 40.4 2.0 9.0 S 0.00 29.225
02/04/2003 3:00 p 44.1 44.1 44.1 44.4 43.7 84 39.6 2.0 12.0 S 0.00 29.248
02/04/2003 3:30 p 43.8 43.8 43.8 44.3 43.4 84 39.3 4.0 14.0 SSE 0.01 29.271
02/04/2003 4:00 p 43.5 43.5 43.5 43.9 43.1 80 37.8 2.0 14.0 SSE 0.00 29.286
02/04/2003 4:30 p 43.0 43.0 43.0 43.9 41.7 74 35.3 3.0 13.0 SSE 0.00 29.317
02/04/2003 5:00 p 40.8 40.8 40.8 41.7 40.5 74 33.2 3.0 12.0 SSE 0.00 29.346
02/04/2003 5:30 p 40.5 40.5 40.5 40.9 40.2 73 32.5 2.0 10.0 SSE 0.00 29.368
02/04/2003 6:00 p 39.2 39.2 39.2 40.3 38.6 75 32.0 2.0 10.0 S 0.00 29.391
02/04/2003 6:30 p 38.5 38.5 38.5 39.0 37.9 74 30.9 2.0 6.0 SSE 0.00 29.410
02/04/2003 7:00 p 37.5 37.5 37.5 38.0 37.0 75 30.3 1.0 6.0 S 0.00 29.430
02/04/2003 7:30 p 36.9 36.9 36.9 37.2 36.7 76 30.1 2.0 7.0 S 0.00 29.445
02/04/2003 8:00 p 37.2 37.2 37.2 37.5 36.8 76 30.3 2.0 7.0 S 0.00 29.468
02/04/2003 8:30 p 37.6 37.6 37.6 37.9 37.3 71 29.1 2.0 10.0 S 0.00 29.486
02/04/2003 9:00 p 36.9 36.9 36.9 37.5 36.3 72 28.7 2.0 11.0 SSE 0.00 29.504
02/04/2003 9:30 p 37.0 37.0 37.0 37.4 36.5 66 26.7 1.0 7.0 S 0.00 29.515
02/04/2003 10:00 p 36.6 36.6 36.6 37.0 36.1 62 24.8 2.0 8.0 S 0.00 29.529
02/04/2003 10:30 p 36.0 36.0 36.0 36.4 35.2 61 23.9 2.0 11.0 S 0.00 29.533
02/04/2003 11:00 p 34.7 34.7 34.7 35.2 34.4 61 22.6 1.0 6.0 S 0.00 29.549
02/04/2003 11:30 p 34.4 34.4 34.4 34.8 33.7 62 22.7 2.0 11.0 SSE 0.00 29.561
02/05/2003 12:00 a 33.5 33.5 33.5 33.7 33.1 62 21.9 1.0 6.0 S 0.00 29.564
02/05/2003 12:30 a 33.4 33.4 33.4 33.8 33.2 61 21.4 1.0 6.0 SSE 0.00 29.573
02/05/2003 1:00 a 32.8 32.8 32.8 33.2 32.4 58 19.7 1.0 6.0 S 0.00 29.567
02/05/2003 1:30 a 33.1 33.1 33.1 33.4 32.8 60 20.7 1.0 7.0 S 0.00 29.580
02/05/2003 2:00 a 33.2 33.2 33.2 33.6 33.0 58 20.0 1.0 6.0 S 0.00 29.600
02/05/2003 2:30 a 33.1 33.1 33.1 33.6 32.6 58 19.9 2.0 7.0 S 0.00 29.609
02/05/2003 3:00 a 32.3 32.3 32.3 32.6 31.7 55 18.0 2.0 9.0 SSE 0.00 29.625
02/05/2003 3:30 a 31.1 31.1 31.1 31.8 30.3 56 17.3 1.0 5.0 SSE 0.00 29.641
02/05/2003 4:00 a 30.7 30.7 30.7 31.0 30.3 55 16.5 2.0 10.0 SSE 0.00 29.656
02/05/2003 4:30 a 30.0 30.0 30.0 30.3 29.5 55 15.8 1.0 6.0 SSE 0.00 29.672
02/05/2003 5:00 a 29.5 29.5 29.5 29.6 29.2 54 14.9 2.0 7.0 SSE 0.00 29.685
02/05/2003 5:30 a 29.0 29.0 29.0 29.4 28.4 53 14.0 2.0 8.0 SSE 0.00 29.705
02/05/2003 6:00 a 28.2 28.2 28.2 28.5 27.9 54 13.7 1.0 9.0 SSE 0.00 29.723
02/05/2003 6:30 a 28.3 28.3 28.3 28.4 28.0 53 13.4 2.0 9.0 SSE 0.00 29.732
02/05/2003 7:00 a 27.5 27.5 27.5 28.0 27.2 54 13.1 1.0 10.0 SSE 0.00 29.751
02/05/2003 7:30 a 28.1 28.1 28.1 29.3 27.4 52 12.8 2.0 8.0 SSE 0.00 29.765
02/05/2003 8:00 a 29.8 29.8 29.8 32.9 28.6 43 10.0 2.0 10.0 SSE 0.00 29.783
02/05/2003 8:30 a 37.3 37.3 37.3 39.7 33.0 33 10.9 2.0 10.0 SSE 0.00 29.804
02/05/2003 9:00 a 39.7 39.7 39.7 40.2 39.1 32 12.3 3.0 13.0 SSE 0.00 29.816
02/05/2003 9:30 a 36.3 36.3 36.3 39.5 34.3 34 10.6 2.0 8.0 SSE 0.00 29.827
02/05/2003 10:00 a 36.0 36.0 36.0 37.3 35.0 31 8.3 3.0 11.0 SSE 0.00 29.842
02/05/2003 10:30 a 34.9 34.9 34.9 37.3 33.9 36 10.7 3.0 13.0 SSE 0.00 29.854
02/05/2003 11:00 a 34.4 34.4 34.4 35.4 33.2 37 10.8 3.0 8.0 SSE 0.00 29.859
02/05/2003 11:30 a 36.0 36.0 36.0 37.9 34.6 34 10.4 3.0 12.0 SSE 0.00 29.863
02/05/2003 12:00 p 37.6 37.6 37.6 40.1 34.7 32 10.4 4.0 12.0 SSE 0.00 29.869
02/05/2003 12:30 p 38.5 38.5 38.5 41.4 36.6 32 11.2 4.0 15.0 SSE 0.00 29.871
02/05/2003 1:00 p 33.9 33.9 33.9 36.5 32.6 36 9.8 3.0 10.0 SSE 0.00 29.868
02/05/2003 1:30 p 34.1 34.1 34.1 34.9 33.4 35 9.3 2.0 8.0 SSE 0.00 29.873
02/05/2003 2:00 p 34.5 34.5 34.5 34.9 34.1 35 9.7 3.0 11.0 SSE 0.00 29.891
02/05/2003 2:30 p 33.5 33.5 33.5 34.6 32.6 36 9.4 3.0 9.0 SSE 0.00 29.906
02/05/2003 3:00 p 32.5 32.5 32.5 33.2 32.0 36 8.5 3.0 12.0 SSE 0.00 29.918
02/05/2003 3:30 p 32.0 32.0 32.0 32.2 31.8 36 8.1 2.0 8.0 SSE 0.00 29.934
02/05/2003 4:00 p 31.5 31.5 31.5 31.9 31.0 35 7.0 3.0 11.0 SSE 0.00 29.943
02/05/2003 4:30 p 30.7 30.7 30.7 31.0 30.3 35 6.3 3.0 8.0 SSE 0.00 29.958
02/05/2003 5:00 p 29.4 29.4 29.4 30.3 28.8 38 6.9 1.0 6.0 SSE 0.00 29.973
02/05/2003 5:30 p 28.1 28.1 28.1 28.8 27.3 41 7.4 1.0 5.0 SSE 0.00 29.989
02/05/2003 6:00 p 27.2 27.2 27.2 27.4 26.8 43 7.7 1.0 4.0 SSE 0.00 30.009
02/05/2003 6:30 p 26.5 26.5 26.5 26.8 26.3 43 7.0 1.0 4.0 S 0.00 30.022
02/05/2003 7:00 p 26.4 26.4 26.4 26.7 26.1 44 7.5 1.0 5.0 SSE 0.00 30.039
02/05/2003 7:30 p 25.5 25.5 25.5 26.2 25.2 46 7.6 0.0 3.0 SE 0.00 30.056
02/05/2003 8:00 p 25.7 25.7 25.7 26.0 25.4 45 7.3 1.0 4.0 SSE 0.00 30.068
02/05/2003 8:30 p 25.6 25.6 25.6 25.9 25.3 44 6.7 1.0 7.0 SSE 0.00 30.078
02/05/2003 9:00 p 24.8 24.8 24.8 25.7 23.6 50 8.8 0.0 4.0 SSE 0.00 30.101
02/05/2003 9:30 p 23.1 23.1 23.1 23.6 22.6 51 7.7 0.0 2.0 SSE 0.00 30.105
02/05/2003 10:00 p 22.8 22.8 22.8 23.3 22.2 54 8.7 0.0 2.0 SSE 0.00 30.121
02/05/2003 10:30 p 22.7 22.7 22.7 23.2 21.9 57 9.8 0.0 3.0 SSE 0.00 30.125
02/05/2003 11:00 p 21.6 21.6 21.6 21.9 21.4 56 8.3 0.0 1.0 SSE 0.00 30.134
02/05/2003 11:30 p 21.9 21.9 21.9 22.6 21.6 55 8.2 0.0 3.0 SSE 0.00 30.139
02/06/2003 12:00 a 22.1 22.1 22.1 22.6 21.3 56 8.8 0.0 3.0 SSE 0.00 30.146
02/06/2003 12:30 a 21.3 21.3 21.3 21.6 21.1 58 8.8 0.0 2.0 SSE 0.00 30.159
02/06/2003 1:00 a 20.5 20.5 20.5 21.2 19.9 59 8.5 0.0 3.0 SSE 0.00 30.161
02/06/2003 1:30 a 19.5 19.5 19.5 19.9 19.3 61 8.3 0.0 0.0 --- 0.00 30.160
02/06/2003 2:00 a 19.6 19.6 19.6 20.4 19.3 57 6.9 0.0 3.0 SSE 0.00 30.165
02/06/2003 2:30 a 20.0 20.0 20.0 20.5 19.2 62 9.1 0.0 3.0 SSE 0.00 30.175
02/06/2003 3:00 a 18.0 18.0 18.0 19.2 17.2 68 9.2 0.0 0.0 --- 0.00 30.179
02/06/2003 3:30 a 17.2 17.2 17.2 17.5 16.7 70 9.1 0.0 0.0 --- 0.00 30.181
02/06/2003 4:00 a 16.8 16.8 16.8 17.1 16.6 71 9.0 0.0 1.0 --- 0.00 30.191
02/06/2003 4:30 a 16.1 16.1 16.1 16.6 15.7 71 8.4 0.0 0.0 --- 0.00 30.204
02/06/2003 5:00 a 15.5 15.5 15.5 15.8 15.0 73 8.4 0.0 0.0 --- 0.00 30.220
02/06/2003 5:30 a 15.1 15.1 15.1 15.8 14.8 81 10.3 0.0 0.0 --- 0.00 30.244
02/06/2003 6:00 a 15.9 15.9 15.9 16.6 15.5 74 9.1 0.0 0.0 --- 0.00 30.241
02/06/2003 6:30 a 15.8 15.8 15.8 16.5 14.8 76 9.6 0.0 0.0 --- 0.00 30.244
02/06/2003 7:00 a 14.5 14.5 14.5 14.8 14.3 79 9.2 0.0 0.0 --- 0.00 30.250
02/06/2003 7:30 a 15.1 15.1 15.1 16.5 14.5 73 8.0 0.0 0.0 --- 0.00 30.259
02/06/2003 8:00 a 17.7 17.7 17.7 21.7 16.3 65 7.9 0.0 0.0 --- 0.00 30.270
02/06/2003 8:30 a 26.6 26.6 26.6 29.6 21.8 45 8.1 0.0 1.0 --- 0.00 30.279
02/06/2003 9:00 a 32.1 32.1 32.1 34.1 28.7 33 6.3 0.0 3.0 SSE 0.00 30.283
02/06/2003 9:30 a 31.7 31.7 31.7 34.3 29.3 35 7.2 0.0 6.0 SSE 0.00 30.279
02/06/2003 10:00 a 32.3 32.3 32.3 33.9 30.7 33 6.4 1.0 5.0 SSE 0.00 30.284
02/06/2003 10:30 a 31.6 31.6 31.6 34.2 29.4 36 7.7 1.0 6.0 SSE 0.00 30.275
02/06/2003 11:00 a 31.2 31.2 31.2 33.4 29.7 32 4.8 1.0 7.0 SSE 0.00 30.272
02/06/2003 11:30 a 32.8 32.8 32.8 34.0 32.1 32 6.2 0.0 4.0 SSE 0.00 30.263
02/06/2003 12:00 p 36.6 36.6 36.6 38.6 34.0 27 5.8 1.0 4.0 S 0.00 30.254
02/06/2003 12:30 p 35.7 35.7 35.7 38.5 34.1 33 9.4 1.0 5.0 SSE 0.00 30.241
02/06/2003 1:00 p 33.4 33.4 33.4 34.3 32.7 34 8.1 1.0 5.0 SSE 0.00 30.233
02/06/2003 1:30 p 32.4 32.4 32.4 32.7 32.2 35 7.8 1.0 4.0 E 0.00 30.230
02/06/2003 2:00 p 32.8 32.8 32.8 33.0 32.5 35 8.2 0.0 3.0 SSW 0.00 30.220
02/06/2003 2:30 p 32.9 32.9 32.9 33.1 32.5 37 9.5 0.0 4.0 SSW 0.00 30.210
02/06/2003 3:00 p 32.3 32.3 32.3 33.1 31.7 37 9.0 0.0 4.0 SSE 0.00 30.210
02/06/2003 3:30 p 31.6 31.6 31.6 31.7 31.5 38 8.9 0.0 3.0 SSE 0.00 30.201
02/06/2003 4:00 p 31.4 31.4 31.4 31.6 31.3 39 9.3 0.0 1.0 SSE 0.00 30.196
02/06/2003 4:30 p 31.1 31.1 31.1 31.4 30.8 40 9.6 0.0 2.0 SE 0.00 30.197
02/06/2003 5:00 p 30.0 30.0 30.0 30.8 29.2 43 10.2 0.0 2.0 SE 0.00 30.189
02/06/2003 5:30 p 28.8 28.8 28.8 29.2 28.5 46 10.6 0.0 0.0 --- 0.00 30.189
02/06/2003 6:00 p 28.5 28.5 28.5 28.8 28.4 47 10.8 0.0 0.0 --- 0.00 30.197
02/06/2003 6:30 p 29.1 29.1 29.1 29.4 28.8 46 10.9 0.0 0.0 --- 0.00 30.190
02/06/2003 7:00 p 29.4 29.4 29.4 29.5 29.3 46 11.2 0.0 0.0 --- 0.00 30.179
02/06/2003 7:30 p 29.5 29.5 29.5 29.6 29.4 48 12.2 0.0 0.0 --- 0.00 30.175
02/06/2003 8:00 p 29.6 29.6 29.6 29.9 29.4 47 11.9 0.0 1.0 --- 0.00 30.174
02/06/2003 8:30 p 29.9 29.9 29.9 30.1 29.8 45 11.2 0.0 3.0 NE 0.00 30.145
02/06/2003 9:00 p 30.0 30.0 30.0 30.1 29.9 49 13.2 0.0 1.0 NE 0.00 30.140
02/06/2003 9:30 p 29.9 29.9 29.9 30.1 29.8 49 13.1 0.0 0.0 --- 0.00 30.131
02/06/2003 10:00 p 30.0 30.0 30.0 30.1 30.0 49 13.2 0.0 1.0 NE 0.00 30.124
02/06/2003 10:30 p 30.0 30.0 30.0 30.2 29.2 65 19.7 0.0 3.0 NE 0.00 30.125
02/06/2003 11:00 p 28.0 28.0 28.0 29.2 27.2 82 23.2 0.0 3.0 NNE 0.00 30.110
02/06/2003 11:30 p 27.1 27.1 27.1 27.3 27.0 85 23.2 0.0 0.0 --- 0.00 30.103
02/07/2003 12:00 a 27.0 27.0 27.0 27.0 26.9 86 23.4 0.0 0.0 --- 0.00 30.087
02/07/2003 12:30 a 26.8 26.8 26.8 26.9 26.8 86 23.2 0.0 0.0 --- 0.00 30.075
02/07/2003 1:00 a 26.8 26.8 26.8 26.8 26.7 88 23.7 0.0 0.0 --- 0.00 30.053
02/07/2003 1:30 a 26.8 26.8 26.8 26.8 26.7 88 23.7 0.0 0.0 --- 0.00 30.036
02/07/2003 2:00 a 26.7 26.7 26.7 26.8 26.7 88 23.6 0.0 0.0 --- 0.00 30.024
02/07/2003 2:30 a 26.6 26.6 26.6 26.7 26.6 89 23.8 0.0 0.0 --- 0.00 30.017
02/07/2003 3:00 a 26.6 26.6 26.6 26.7 26.6 89 23.8 0.0 0.0 --- 0.00 29.999
02/07/2003 3:30 a 26.5 26.5 26.5 26.6 26.5 89 23.7 0.0 0.0 --- 0.00 29.977
02/07/2003 4:00 a 26.5 26.5 26.5 26.5 26.4 89 23.7 0.0 0.0 --- 0.00 29.950
02/07/2003 4:30 a 26.5 26.5 26.5 26.5 26.4 90 24.0 0.0 0.0 --- 0.00 29.926
02/07/2003 5:00 a 26.5 26.5 26.5 26.5 26.4 90 24.0 0.0 0.0 --- 0.00 29.905
02/07/2003 5:30 a 26.4 26.4 26.4 26.4 26.4 90 23.9 0.0 0.0 --- 0.00 29.891
02/07/2003 6:00 a 26.4 26.4 26.4 26.5 26.4 90 23.9 0.0 0.0 --- 0.00 29.874
02/07/2003 6:30 a 26.5 26.5 26.5 26.6 26.4 90 24.0 0.0 0.0 --- 0.00 29.862
02/07/2003 7:00 a 26.6 26.6 26.6 26.7 26.5 90 24.1 0.0 0.0 --- 0.00 29.844
02/07/2003 7:30 a 26.9 26.9 26.9 27.1 26.7 91 24.6 0.0 0.0 --- 0.00 29.823
02/07/2003 8:00 a 27.2 27.2 27.2 27.4 27.1 91 24.9 0.0 0.0 --- 0.00 29.809
02/07/2003 8:30 a 27.6 27.6 27.6 27.7 27.4 90 25.1 0.0 1.0 S 0.00 29.800
02/07/2003 9:00 a 28.0 28.0 28.0 28.3 27.7 90 25.5 0.0 0.0 --- 0.00 29.790
02/07/2003 9:30 a 28.7 28.7 28.7 29.2 28.3 91 26.4 0.0 2.0 SSW 0.00 29.776
02/07/2003 10:00 a 29.6 29.6 29.6 29.9 29.1 91 27.3 0.0 3.0 SSW 0.00 29.759
02/07/2003 10:30 a 30.4 30.4 30.4 30.7 29.9 90 27.8 0.0 4.0 SSW 0.00 29.759
02/07/2003 11:00 a 30.6 30.6 30.6 31.1 30.3 90 28.0 0.0 1.0 SE 0.00 29.748
02/07/2003 11:30 a 31.5 31.5 31.5 32.0 31.1 90 28.9 0.0 2.0 SE 0.00 29.739
02/07/2003 12:00 p 32.5 32.5 32.5 32.8 32.0 90 29.9 0.0 2.0 SE 0.00 29.715
02/07/2003 12:30 p 33.2 33.2 33.2 33.8 32.8 89 30.3 0.0 2.0 SE 0.00 29.702
02/07/2003 1:00 p 33.6 33.6 33.6 33.9 33.5 89 30.7 0.0 3.0 SSE 0.00 29.687
02/07/2003 1:30 p 33.5 33.5 33.5 33.8 33.1 90 30.9 1.0 5.0 SSE 0.00 29.675
02/07/2003 2:00 p 33.5 33.5 33.5 33.8 33.3 90 30.9 0.0 4.0 SSE 0.00 29.669
02/07/2003 2:30 p 34.2 34.2 34.2 34.6 33.8 88 31.0 1.0 4.0 SSE 0.00 29.663
02/07/2003 3:00 p 33.7 33.7 33.7 34.1 33.6 89 30.8 1.0 4.0 S 0.00 29.659
02/07/2003 3:30 p 33.6 33.6 33.6 33.9 33.3 90 31.0 0.0 6.0 SSE 0.00 29.661
02/07/2003 4:00 p 33.3 33.3 33.3 33.4 33.1 89 30.4 1.0 6.0 S 0.01 29.674
02/07/2003 4:30 p 32.9 32.9 32.9 33.1 32.4 89 30.0 1.0 6.0 SSE 0.00 29.678
02/07/2003 5:00 p 32.3 32.3 32.3 32.5 32.1 90 29.7 0.0 4.0 SSE 0.01 29.688
02/07/2003 5:30 p 31.8 31.8 31.8 32.1 31.2 91 29.5 0.0 1.0 SSE 0.00 29.687
02/07/2003 6:00 p 30.7 30.7 30.7 31.2 30.1 91 28.4 0.0 0.0 --- 0.01 29.695
02/07/2003 6:30 p 29.2 29.2 29.2 30.1 28.6 91 26.9 0.0 0.0 --- 0.00 29.703
02/07/2003 7:00 p 28.2 28.2 28.2 28.6 27.6 91 25.9 0.0 0.0 --- 0.00 29.712
02/07/2003 7:30 p 26.8 26.8 26.8 27.6 26.0 89 24.0 0.0 2.0 SSE 0.00 29.718
02/07/2003 8:00 p 24.7 24.7 24.7 26.0 23.6 89 21.9 0.0 1.0 --- 0.00 29.731
02/07/2003 8:30 p 24.8 24.8 24.8 25.7 23.7 90 22.3 0.0 1.0 SSE 0.00 29.744
02/07/2003 9:00 p 26.7 26.7 26.7 27.9 25.5 89 23.9 1.0 4.0 SSE 0.00 29.760
02/07/2003 9:30 p 27.9 27.9 27.9 28.2 27.4 87 24.5 1.0 5.0 SSE 0.00 29.764
02/07/2003 10:00 p 27.1 27.1 27.1 27.4 26.8 86 23.5 1.0 7.0 SSW 0.00 29.785
02/07/2003 10:30 p 26.0 26.0 26.0 26.8 24.9 83 21.6 3.0 14.0 SSE 0.00 29.818
02/07/2003 11:00 p 24.3 24.3 24.3 24.9 23.9 82 19.6 3.0 11.0 SSE 0.00 29.827
02/07/2003 11:30 p 23.3 23.3 23.3 23.9 22.7 81 18.3 1.0 8.0 SSE 0.00 29.847
02/08/2003 12:00 a 22.0 22.0 22.0 22.7 21.2 80 16.8 2.0 7.0 SSE 0.00 29.863
02/08/2003 12:30 a 20.7 20.7 20.7 21.2 20.1 80 15.5 2.0 9.0 SSE 0.00 29.867
02/08/2003 1:00 a 19.3 19.3 19.3 20.1 18.8 81 14.4 1.0 5.0 S 0.00 29.886
02/08/2003 1:30 a 18.6 18.6 18.6 18.8 18.3 81 13.8 1.0 6.0 SSE 0.00 29.902
02/08/2003 2:00 a 17.8 17.8 17.8 18.3 17.5 80 12.7 1.0 5.0 SSE 0.00 29.915
02/08/2003 2:30 a 16.9 16.9 16.9 17.5 16.3 80 11.8 0.0 3.0 SSE 0.00 29.920
02/08/2003 3:00 a 16.0 16.0 16.0 16.5 15.4 80 10.9 0.0 4.0 SSE 0.00 29.924
02/08/2003 3:30 a 15.1 15.1 15.1 15.7 14.4 79 9.8 0.0 2.0 NE 0.00 29.930
02/08/2003 4:00 a 13.5 13.5 13.5 14.5 12.7 80 8.5 0.0 0.0 --- 0.00 29.931
02/08/2003 4:30 a 12.4 12.4 12.4 12.7 12.0 80 7.4 0.0 0.0 --- 0.00 29.943
02/08/2003 5:00 a 11.5 11.5 11.5 12.1 10.7 80 6.5 0.0 0.0 --- 0.00 29.947
02/08/2003 5:30 a 9.6 9.6 9.6 10.7 8.8 80 4.7 0.0 0.0 --- 0.00 29.958
02/08/2003 6:00 a 8.4 8.4 8.4 8.9 7.8 80 3.5 0.0 0.0 --- 0.00 29.973
02/08/2003 6:30 a 7.4 7.4 7.4 7.8 7.1 80 2.5 0.0 0.0 --- 0.00 29.986
02/08/2003 7:00 a 7.2 7.2 7.2 7.4 6.9 80 2.3 0.0 0.0 --- 0.00 29.991
02/08/2003 7:30 a 8.6 8.6 8.6 11.9 7.0 79 3.4 0.0 0.0 --- 0.00 29.999
02/08/2003 8:00 a 13.4 13.4 13.4 18.4 11.7 79 8.1 0.0 0.0 --- 0.00 30.006
02/08/2003 8:30 a 27.6 27.6 27.6 33.2 18.5 73 20.1 0.0 0.0 --- 0.00 30.016
02/08/2003 9:00 a 34.0 34.0 34.0 34.7 33.1 71 25.6 0.0 2.0 NE 0.00 30.015
02/08/2003 9:30 a 32.0 32.0 32.0 34.4 30.1 70 23.3 0.0 3.0 S 0.00 30.008
02/08/2003 10:00 a 31.1 31.1 31.1 33.2 29.6 73 23.5 1.0 5.0 SSE 0.02 30.007
02/08/2003 10:30 a 29.5 29.5 29.5 30.8 27.8 74 22.2 1.0 6.0 SSE 0.01 30.001
02/08/2003 11:00 a 29.5 29.5 29.5 31.4 27.9 73 21.9 1.0 4.0 SSE 0.01 30.012
02/08/2003 11:30 a 30.5 30.5 30.5 31.6 29.8 70 21.9 2.0 6.0 SSE 0.01 29.997
02/08/2003 12:00 p 32.7 32.7 32.7 33.5 30.6 69 23.7 1.0 5.0 S 0.01 29.980
02/08/2003 12:30 p 33.6 33.6 33.6 34.2 33.2 69 24.5 1.0 7.0 SSE 0.02 29.976
02/08/2003 1:00 p 31.3 31.3 31.3 33.5 29.8 70 22.7 2.0 8.0 SSE 0.01 29.965
02/08/2003 1:30 p 29.2 29.2 29.2 29.9 28.6 72 21.3 1.0 5.0 SSE 0.01 29.947
02/08/2003 2:00 p 28.2 28.2 28.2 28.6 28.1 73 20.7 2.0 7.0 S 0.00 29.929
02/08/2003 2:30 p 28.0 28.0 28.0 28.3 27.8 69 19.2 1.0 6.0 S 0.00 29.921
02/08/2003 3:00 p 27.6 27.6 27.6 27.8 27.5 72 19.8 1.0 5.0 S 0.00 29.920
02/08/2003 3:30 p 27.3 27.3 27.3 27.5 27.1 71 19.2 1.0 5.0 S 0.00 29.913
02/08/2003 4:00 p 26.8 26.8 26.8 27.2 26.4 69 18.0 1.0 4.0 S 0.00 29.915
02/08/2003 4:30 p 26.0 26.0 26.0 26.4 25.6 72 18.2 1.0 4.0 S 0.00 29.920
02/08/2003 5:00 p 24.9 24.9 24.9 25.6 24.0 73 17.5 1.0 4.0 SSE 0.00 29.926
02/08/2003 5:30 p 23.3 23.3 23.3 24.0 22.7 75 16.6 0.0 3.0 S 0.00 29.929
02/08/2003 6:00 p 22.4 22.4 22.4 22.8 21.9 73 15.1 0.0 3.0 S 0.00 29.949
02/08/2003 6:30 p 21.3 21.3 21.3 21.9 21.0 75 14.6 0.0 3.0 SSE 0.00 29.948
02/08/2003 7:00 p 21.0 21.0 21.0 21.2 20.8 74 14.0 1.0 3.0 SSE 0.00 29.956
02/08/2003 7:30 p 20.5 20.5 20.5 20.9 20.1 71 12.6 1.0 3.0 S 0.00 29.964
02/08/2003 8:00 p 19.8 19.8 19.8 20.1 19.7 72 12.2 1.0 4.0 S 0.00 29.964
02/08/2003 8:30 p 19.0 19.0 19.0 19.8 17.8 72 11.5 0.0 3.0 S 0.00 29.972
02/08/2003 9:00 p 16.2 16.2 16.2 17.8 14.7 74 9.4 0.0 0.0 --- 0.00 29.971
02/08/2003 9:30 p 14.0 14.0 14.0 14.8 13.1 76 7.8 0.0 0.0 --- 0.00 29.959
02/08/2003 10:00 p 12.6 12.6 12.6 13.2 11.6 77 6.8 0.0 0.0 --- 0.00 29.956
02/08/2003 10:30 p 11.0 11.0 11.0 11.6 10.3 77 5.2 0.0 0.0 --- 0.00 29.945
02/08/2003 11:00 p 10.7 10.7 10.7 11.7 10.2 77 4.9 0.0 0.0 --- 0.00 29.941
02/08/2003 11:30 p 11.4 11.4 11.4 11.6 11.1 76 5.3 0.0 0.0 --- 0.00 29.942
02/09/2003 12:00 a 10.7 10.7 10.7 11.3 10.4 78 5.2 0.0 0.0 --- 0.00 29.938
02/09/2003 12:30 a 10.2 10.2 10.2 10.6 9.5 77 4.4 0.0 0.0 --- 0.00 29.937
02/09/2003 1:00 a 9.8 9.8 9.8 11.2 9.1 78 4.3 0.0 2.0 SSW 0.00 29.940
02/09/2003 1:30 a 11.2 11.2 11.2 11.3 11.1 77 5.4 0.0 1.0 SSW 0.00 29.943
02/09/2003 2:00 a 10.5 10.5 10.5 11.2 9.7 77 4.7 0.0 0.0 --- 0.00 29.936
02/09/2003 2:30 a 9.3 9.3 9.3 9.7 9.0 78 3.8 0.0 0.0 --- 0.00 29.930
02/09/2003 3:00 a 9.3 9.3 9.3 9.7 8.9 78 3.8 0.0 0.0 --- 0.00 29.921
02/09/2003 3:30 a 10.1 10.1 10.1 10.5 9.6 77 4.3 0.0 0.0 --- 0.00 29.910
02/09/2003 4:00 a 11.4 11.4 11.4 12.8 10.4 76 5.3 0.0 0.0 --- 0.00 29.917
02/09/2003 4:30 a 13.0 13.0 13.0 13.3 12.8 76 6.9 0.0 1.0 --- 0.00 29.919
02/09/2003 5:00 a 13.0 13.0 13.0 13.2 12.8 76 6.9 0.0 1.0 --- 0.00 29.922
02/09/2003 5:30 a 13.3 13.3 13.3 13.6 12.8 76 7.2 0.0 0.0 --- 0.00 29.923
02/09/2003 6:00 a 12.7 12.7 12.7 12.9 12.5 77 6.9 0.0 0.0 --- 0.00 29.932
02/09/2003 6:30 a 13.1 13.1 13.1 13.4 12.6 78 7.5 0.0 0.0 --- 0.00 29.947
02/09/2003 7:00 a 13.6 13.6 13.6 13.8 13.4 75 7.2 0.0 0.0 --- 0.00 29.948
02/09/2003 7:30 a 14.4 14.4 14.4 15.9 13.6 75 7.9 0.0 0.0 --- 0.00 29.950
02/09/2003 8:00 a 18.4 18.4 18.4 20.1 15.9 71 10.6 0.0 2.0 SSW 0.00 29.951
02/09/2003 8:30 a 23.3 23.3 23.3 26.0 20.1 65 13.3 0.0 2.0 SSW 0.00 29.951
02/09/2003 9:00 a 28.2 28.2 28.2 29.9 25.2 63 17.2 0.0 3.0 NE 0.00 29.952
02/09/2003 9:30 a 29.4 29.4 29.4 30.3 28.6 61 17.6 0.0 4.0 SSE 0.00 29.949
02/09/2003 10:00 a 29.4 29.4 29.4 31.7 28.4 56 15.7 1.0 5.0 SSE 0.00 29.956
02/09/2003 10:30 a 33.2 33.2 33.2 34.8 31.7 57 19.6 1.0 6.0 S 0.00 29.954
02/09/2003 11:00 a 33.4 33.4 33.4 35.3 32.3 55 19.0 1.0 6.0 S 0.00 29.950
02/09/2003 11:30 a 36.2 36.2 36.2 36.8 35.3 57 22.4 2.0 6.0 S 0.01 29.938
02/09/2003 12:00 p 38.5 38.5 38.5 40.1 36.2 54 23.3 2.0 7.0 SSE 0.01 29.920
02/09/2003 12:30 p 40.5 40.5 40.5 41.0 40.0 53 24.7 2.0 7.0 S 0.01 29.919
02/09/2003 1:00 p 37.4 37.4 37.4 40.0 36.4 57 23.6 2.0 6.0 S 0.02 29.910
02/09/2003 1:30 p 36.3 36.3 36.3 36.9 35.9 59 23.4 2.0 4.0 S 0.00 29.903
02/09/2003 2:00 p 36.3 36.3 36.3 36.8 35.7 56 22.1 1.0 5.0 S 0.01 29.898
02/09/2003 2:30 p 36.0 36.0 36.0 36.5 35.5 55 21.4 1.0 5.0 SSE 0.00 29.894
02/09/2003 3:00 p 35.5 35.5 35.5 36.2 35.1 58 22.2 1.0 5.0 SSE 0.00 29.897
02/09/2003 3:30 p 35.1 35.1 35.1 35.3 34.7 59 22.2 2.0 9.0 SSE 0.01 29.908
02/09/2003 4:00 p 34.5 34.5 34.5 34.8 34.3 57 20.9 1.0 6.0 SSE 0.00 29.910
02/09/2003 4:30 p 33.7 33.7 33.7 34.3 33.0 60 21.3 2.0 6.0 SSE 0.00 29.914
02/09/2003 5:00 p 31.8 31.8 31.8 33.0 30.8 66 21.8 0.0 2.0 SSW 0.00 29.916
02/09/2003 5:30 p 29.9 29.9 29.9 30.8 28.7 70 21.3 0.0 3.0 S 0.00 29.908
02/09/2003 6:00 p 26.9 26.9 26.9 28.7 25.2 76 20.4 0.0 0.0 --- 0.00 29.910
02/09/2003 6:30 p 24.4 24.4 24.4 25.3 23.9 79 18.8 0.0 0.0 --- 0.00 29.922
02/09/2003 7:00 p 23.9 23.9 23.9 24.2 23.6 78 18.1 0.0 0.0 --- 0.00 29.924
02/09/2003 7:30 p 23.7 23.7 23.7 24.3 22.9 78 17.9 0.0 0.0 --- 0.00 29.943
02/09/2003 8:00 p 22.3 22.3 22.3 22.9 21.8 81 17.4 0.0 0.0 --- 0.00 29.941
02/09/2003 8:30 p 21.0 21.0 21.0 21.8 20.5 82 16.4 0.0 0.0 --- 0.00 29.937
02/09/2003 9:00 p 21.3 21.3 21.3 21.8 20.4 82 16.7 0.0 2.0 SSE 0.00 29.932
02/09/2003 9:30 p 22.5 22.5 22.5 23.2 20.8 78 16.7 0.0 0.0 --- 0.00 29.939
02/09/2003 10:00 p 22.0 22.0 22.0 22.7 21.3 79 16.5 0.0 0.0 --- 0.00 29.939
02/09/2003 10:30 p 22.6 22.6 22.6 22.8 22.4 79 17.1 0.0 0.0 --- 0.00 29.940
02/09/2003 11:00 p 23.1 23.1 23.1 23.8 22.4 82 18.4 0.0 0.0 --- 0.00 29.937
02/09/2003 11:30 p 23.9 23.9 23.9 24.2 23.8 81 18.9 0.0 0.0 --- 0.00 29.936
02/10/2003 12:00 a 24.3 24.3 24.3 24.5 24.2 82 19.6 0.0 0.0 --- 0.00 29.922
02/10/2003 12:30 a 24.5 24.5 24.5 24.5 24.4 82 19.8 0.0 0.0 --- 0.00 29.920
02/10/2003 1:00 a 24.8 24.8 24.8 25.2 24.5 82 20.1 0.0 0.0 --- 0.00 29.916
02/10/2003 1:30 a 24.9 24.9 24.9 25.2 24.7 81 19.9 0.0 0.0 --- 0.00 29.917
02/10/2003 2:00 a 24.8 24.8 24.8 25.1 24.6 83 20.4 0.0 0.0 --- 0.00 29.899
02/10/2003 2:30 a 25.5 25.5 25.5 25.6 25.1 83 21.1 0.0 0.0 --- 0.00 29.888
02/10/2003 3:00 a 25.4 25.4 25.4 25.5 25.4 82 20.7 0.0 0.0 --- 0.00 29.874
02/10/2003 3:30 a 25.2 25.2 25.2 25.5 25.0 84 21.1 0.0 0.0 --- 0.00 29.870
02/10/2003 4:00 a 24.8 24.8 24.8 25.0 24.7 84 20.7 0.0 0.0 --- 0.00 29.854
02/10/2003 4:30 a 25.1 25.1 25.1 25.3 24.8 84 21.0 0.0 0.0 --- 0.00 29.843
02/10/2003 5:00 a 24.4 24.4 24.4 25.0 23.8 85 20.5 0.0 0.0 --- 0.00 29.832
02/10/2003 5:30 a 23.5 23.5 23.5 23.8 23.3 85 19.7 0.0 0.0 --- 0.00 29.829
02/10/2003 6:00 a 24.0 24.0 24.0 24.5 23.5 83 19.6 0.0 0.0 --- 0.00 29.825
02/10/2003 6:30 a 24.7 24.7 24.7 25.1 24.5 82 20.0 0.0 0.0 --- 0.00 29.816
02/10/2003 7:00 a 25.0 25.0 25.0 25.2 24.9 83 20.6 0.0 0.0 --- 0.00 29.812
02/10/2003 7:30 a 25.7 25.7 25.7 26.2 25.2 83 21.3 0.0 0.0 --- 0.00 29.798
02/10/2003 8:00 a 27.1 27.1 27.1 27.9 26.2 81 22.1 0.0 0.0 --- 0.00 29.787
02/10/2003 8:30 a 28.8 28.8 28.8 29.4 27.9 75 21.9 0.0 0.0 --- 0.00 29.760
02/10/2003 9:00 a 30.2 30.2 30.2 31.1 29.3 72 22.3 0.0 0.0 --- 0.00 29.722
02/10/2003 9:30 a 31.9 31.9 31.9 33.0 31.1 70 23.2 0.0 0.0 --- 0.00 29.708
02/10/2003 10:00 a 33.6 33.6 33.6 34.1 33.0 68 24.2 0.0 0.0 --- 0.00 29.697
02/10/2003 10:30 a 34.5 34.5 34.5 35.2 34.0 63 23.2 0.0 3.0 NNE 0.00 29.674
02/10/2003 11:00 a 35.8 35.8 35.8 36.2 35.2 63 24.5 1.0 4.0 NNE 0.00 29.656
02/10/2003 11:30 a 35.4 35.4 35.4 36.0 35.2 69 26.3 1.0 5.0 NNE 0.01 29.630
02/10/2003 12:00 p 35.5 35.5 35.5 35.8 35.0 75 28.4 1.0 4.0 NE 0.00 29.597
02/10/2003 12:30 p 35.0 35.0 35.0 35.3 34.9 73 27.2 0.0 2.0 N 0.00 29.557
02/10/2003 1:00 p 34.7 34.7 34.7 35.4 34.0 80 29.2 0.0 2.0 N 0.00 29.524
02/10/2003 1:30 p 33.6 33.6 33.6 34.0 33.1 87 30.2 0.0 0.0 --- 0.00 29.500
02/10/2003 2:00 p 33.1 33.1 33.1 33.1 33.0 89 30.2 0.0 0.0 --- 0.00 29.475
02/10/2003 2:30 p 33.7 33.7 33.7 34.0 33.1 88 30.5 0.0 1.0 N 0.00 29.438
02/10/2003 3:00 p 33.8 33.8 33.8 34.0 33.7 89 30.9 0.0 0.0 --- 0.01 29.419
02/10/2003 3:30 p 33.1 33.1 33.1 33.9 32.5 91 30.8 0.0 2.0 NE 0.01 29.425
02/10/2003 4:00 p 32.4 32.4 32.4 32.6 32.4 92 30.3 0.0 1.0 NE 0.00 29.412
02/10/2003 4:30 p 32.5 32.5 32.5 32.7 32.3 92 30.4 0.0 0.0 --- 0.01 29.403
02/10/2003 5:00 p 32.2 32.2 32.2 32.5 32.0 93 30.4 0.0 1.0 NE 0.00 29.397
02/10/2003 5:30 p 31.9 31.9 31.9 32.1 31.8 94 30.4 0.0 0.0 --- 0.00 29.387
02/10/2003 6:00 p 31.9 31.9 31.9 31.9 31.8 94 30.4 0.0 0.0 --- 0.00 29.388
02/10/2003 6:30 p 31.8 31.8 31.8 31.9 31.7 94 30.3 0.0 0.0 --- 0.00 29.395
02/10/2003 7:00 p 31.8 31.8 31.8 31.8 31.7 94 30.3 0.0 0.0 --- 0.00 29.401
02/10/2003 7:30 p 31.8 31.8 31.8 31.8 31.7 94 30.3 0.0 1.0 --- 0.00 29.406
02/10/2003 8:00 p 31.8 31.8 31.8 31.8 31.7 94 30.3 0.0 2.0 SE 0.00 29.421
02/10/2003 8:30 p 31.5 31.5 31.5 31.7 31.0 94 30.0 0.0 0.0 --- 0.00 29.421
02/10/2003 9:00 p 30.3 30.3 30.3 31.0 29.5 93 28.5 0.0 0.0 --- 0.00 29.429
02/10/2003 9:30 p 29.3 29.3 29.3 29.6 28.9 93 27.5 0.0 1.0 E 0.00 29.431
02/10/2003 10:00 p 28.3 28.3 28.3 28.9 27.3 92 26.3 0.0 1.0 --- 0.00 29.447
02/10/2003 10:30 p 26.7 26.7 26.7 27.3 26.3 93 25.0 0.0 0.0 --- 0.00 29.455
02/10/2003 11:00 p 26.1 26.1 26.1 26.8 25.8 93 24.4 0.0 0.0 --- 0.00 29.463
02/10/2003 11:30 p 27.7 27.7 27.7 28.1 26.8 92 25.7 0.0 2.0 E 0.00 29.481
02/11/2003 12:00 a 27.9 27.9 27.9 28.2 27.7 92 25.9 0.0 2.0 SSE 0.00 29.494
02/11/2003 12:30 a 27.9 27.9 27.9 28.3 27.4 90 25.4 0.0 3.0 SSE 0.00 29.506
02/11/2003 1:00 a 27.6 27.6 27.6 28.2 27.1 90 25.1 0.0 4.0 SSE 0.00 29.523
02/11/2003 1:30 a 28.5 28.5 28.5 28.8 27.9 87 25.1 2.0 7.0 SSE 0.00 29.542
02/11/2003 2:00 a 28.8 28.8 28.8 29.6 27.6 85 24.9 4.0 15.0 SSE 0.00 29.569
02/11/2003 2:30 a 27.0 27.0 27.0 27.6 26.5 81 22.0 3.0 16.0 SSE 0.00 29.597
02/11/2003 3:00 a 25.8 25.8 25.8 26.6 24.9 77 19.6 3.0 10.0 SSE 0.00 29.619
02/11/2003 3:30 a 24.0 24.0 24.0 24.9 22.9 74 16.9 3.0 12.0 SSE 0.00 29.644
02/11/2003 4:00 a 22.2 22.2 22.2 22.9 21.3 71 14.2 3.0 10.0 SSE 0.00 29.672
02/11/2003 4:30 a 20.7 20.7 20.7 21.3 20.0 69 12.2 3.0 12.0 SSE 0.00 29.683
02/11/2003 5:00 a 19.9 19.9 16.0 20.1 19.4 66 10.4 5.0 17.0 SSE 0.00 29.703
02/11/2003 5:30 a 18.9 18.9 18.9 19.5 18.1 66 9.4 3.0 12.0 SSE 0.00 29.737
02/11/2003 6:00 a 17.5 17.5 17.5 18.0 17.0 66 8.1 3.0 11.0 SSE 0.00 29.763
02/11/2003 6:30 a 16.3 16.3 16.3 17.0 15.3 64 6.3 2.0 9.0 SSE 0.00 29.792
02/11/2003 7:00 a 15.2 15.2 15.2 15.3 15.1 63 4.9 3.0 10.0 SSE 0.00 29.799
02/11/2003 7:30 a 16.0 16.0 16.0 17.9 15.0 51 1.1 4.0 11.0 SSE 0.00 29.834
02/11/2003 8:00 a 18.1 18.1 18.1 20.5 16.9 47 1.3 3.0 11.0 SSE 0.00 29.847
02/11/2003 8:30 a 24.0 24.0 24.0 26.4 20.5 42 4.3 3.0 12.0 SSE 0.00 29.845
02/11/2003 9:00 a 26.2 26.2 26.2 27.2 24.6 39 4.6 3.0 9.0 SSE 0.00 29.850
02/11/2003 9:30 a 21.4 21.4 21.4 24.6 19.7 44 2.9 3.0 11.0 SSE 0.00 29.861
02/11/2003 10:00 a 24.4 24.4 24.4 26.5 21.7 42 4.6 1.0 7.0 SSE 0.00 29.864
02/11/2003 10:30 a 22.9 22.9 22.9 24.1 21.5 45 4.7 2.0 7.0 SSE 0.00 29.860
02/11/2003 11:00 a 24.0 24.0 24.0 27.3 21.5 40 3.2 2.0 7.0 SSE 0.00 29.850
02/11/2003 11:30 a 23.7 23.7 23.7 25.6 22.1 38 1.8 2.0 7.0 SSE 0.00 29.835
02/11/2003 12:00 p 28.7 28.7 28.7 30.5 25.7 39 6.9 2.0 9.0 SSE 0.00 29.814
02/11/2003 12:30 p 29.9 29.9 29.9 30.9 28.7 39 8.0 2.0 5.0 SSE 0.00 29.806
02/11/2003 1:00 p 26.9 26.9 26.9 29.3 25.1 45 8.4 2.0 7.0 SSE 0.00 29.806
02/11/2003 1:30 p 26.3 26.3 26.3 27.1 25.6 41 5.8 1.0 5.0 SSE 0.00 29.786
02/11/2003 2:00 p 26.1 26.1 26.1 26.9 25.3 43 6.7 2.0 8.0 SSE 0.01 29.772
02/11/2003 2:30 p 26.4 26.4 26.4 26.6 26.0 46 8.4 2.0 6.0 SSE 0.00 29.749
02/11/2003 3:00 p 26.0 26.0 26.0 26.2 25.9 46 8.1 1.0 6.0 SSE 0.00 29.742
02/11/2003 3:30 p 26.3 26.3 26.3 26.6 26.0 49 9.8 1.0 6.0 SSE 0.00 29.743
02/11/2003 4:00 p 25.8 25.8 25.8 26.4 25.3 51 10.2 0.0 3.0 SE 0.00 29.736
02/11/2003 4:30 p 24.8 24.8 24.8 25.4 24.2 54 10.5 0.0 2.0 SE 0.00 29.731
02/11/2003 5:00 p 23.7 23.7 23.7 24.2 22.6 56 10.3 0.0 0.0 --- 0.00 29.727
02/11/2003 5:30 p 21.8 21.8 21.8 22.6 21.3 58 9.3 0.0 0.0 --- 0.00 29.730
02/11/2003 6:00 p 21.8 21.8 21.8 22.1 21.7 55 8.1 0.0 0.0 --- 0.00 29.724
02/11/2003 6:30 p 22.5 22.5 22.5 22.7 22.1 61 11.1 0.0 0.0 --- 0.00 29.720
02/11/2003 7:00 p 22.1 22.1 22.1 22.6 21.5 62 11.1 0.0 0.0 --- 0.00 29.718
02/11/2003 7:30 p 21.8 21.8 21.8 22.4 21.4 64 11.5 0.0 0.0 --- 0.00 29.721
02/11/2003 8:00 p 22.3 22.3 22.3 22.7 21.1 61 10.9 0.0 0.0 --- 0.00 29.705
02/11/2003 8:30 p 21.9 21.9 21.9 22.6 21.0 60 10.2 0.0 0.0 --- 0.00 29.708
02/11/2003 9:00 p 23.0 23.0 23.0 23.3 22.6 64 12.7 0.0 1.0 --- 0.00 29.697
02/11/2003 9:30 p 22.8 22.8 22.8 23.3 22.2 69 14.2 0.0 1.0 SE 0.00 29.685
02/11/2003 10:00 p 20.8 20.8 20.8 22.2 19.1 72 13.2 0.0 0.0 --- 0.00 29.682
02/11/2003 10:30 p 20.1 20.1 20.1 21.2 19.1 73 12.8 0.0 0.0 --- 0.00 29.675
02/11/2003 11:00 p 18.4 18.4 18.4 20.4 16.9 76 12.1 0.0 0.0 --- 0.00 29.662
02/11/2003 11:30 p 16.0 16.0 16.0 16.9 15.2 79 10.6 0.0 0.0 --- 0.00 29.658
02/12/2003 12:00 a 14.4 14.4 14.4 15.2 13.5 79 9.1 0.0 0.0 --- 0.00 29.656
02/12/2003 12:30 a 12.7 12.7 12.7 13.5 12.1 83 8.5 0.0 0.0 --- 0.00 29.650
02/12/2003 1:00 a 11.6 11.6 11.6 12.2 11.2 83 7.4 0.0 0.0 --- 0.00 29.646
02/12/2003 1:30 a 10.8 10.8 10.8 11.2 10.4 84 6.9 0.0 0.0 --- 0.00 29.627
02/12/2003 2:00 a 10.4 10.4 10.4 10.8 9.8 84 6.5 0.0 0.0 --- 0.00 29.605
02/12/2003 2:30 a 9.8 9.8 9.8 10.1 9.6 84 5.9 0.0 0.0 --- 0.00 29.599
02/12/2003 3:00 a 9.5 9.5 9.5 10.0 9.0 84 5.7 0.0 0.0 --- 0.00 29.569
02/12/2003 3:30 a 9.8 9.8 9.8 10.6 8.9 84 5.9 0.0 0.0 --- 0.00 29.552
02/12/2003 4:00 a 10.7 10.7 10.7 11.3 10.1 82 6.3 0.0 0.0 --- 0.00 29.530
02/12/2003 4:30 a 10.9 10.9 10.9 12.2 10.2 83 6.8 0.0 0.0 --- 0.00 29.507
02/12/2003 5:00 a 13.4 13.4 13.4 14.5 12.2 84 9.5 0.0 2.0 SE 0.00 29.501
02/12/2003 5:30 a 15.7 15.7 15.7 16.4 14.5 83 11.5 0.0 1.0 --- 0.00 29.489
02/12/2003 6:00 a 15.6 15.6 15.6 16.4 15.0 83 11.4 0.0 2.0 SE 0.00 29.481
02/12/2003 6:30 a 15.3 15.3 15.3 17.0 14.6 85 11.6 0.0 2.0 SE 0.00 29.464
02/12/2003 7:00 a 16.4 16.4 16.4 17.2 15.9 84 12.4 0.0 3.0 SE 0.00 29.464
02/12/2003 7:30 a 19.1 19.1 19.1 22.6 16.4 85 15.3 0.0 2.0 SE 0.00 29.487
02/12/2003 8:00 a 27.2 27.2 27.2 31.5 22.6 70 18.7 2.0 12.0 SSE 0.00 29.527
02/12/2003 8:30 a 29.5 29.5 29.5 30.9 29.0 61 17.7 3.0 10.0 SSE 0.00 29.547
02/12/2003 9:00 a 34.1 34.1 34.1 36.4 30.5 41 12.9 4.0 16.0 SSE 0.00 29.570
02/12/2003 9:30 a 36.4 36.4 36.4 37.4 35.2 36 12.0 3.0 16.0 SSE 0.00 29.589
02/12/2003 10:00 a 35.3 35.3 35.3 37.2 34.4 38 12.2 3.0 11.0 S 0.00 29.601
02/12/2003 10:30 a 30.5 30.5 30.5 34.7 28.6 40 9.1 4.0 15.0 SSE 0.00 29.630
02/12/2003 11:00 a 29.4 29.4 29.4 34.1 27.8 38 6.9 4.0 15.0 SSE 0.00 29.640
02/12/2003 11:30 a 33.3 33.3 33.3 35.0 31.4 33 7.3 3.0 15.0 SSE 0.00 29.650
02/12/2003 12:00 p 34.5 34.5 34.5 35.5 33.7 33 8.4 4.0 11.0 SSE 0.00 29.652
02/12/2003 12:30 p 36.3 36.3 36.3 37.3 33.7 27 5.5 3.0 11.0 SSE 0.00 29.663
02/12/2003 1:00 p 31.6 31.6 31.6 36.4 28.7 31 4.4 3.0 11.0 S 0.00 29.667
02/12/2003 1:30 p 27.9 27.9 27.9 28.7 27.4 32 1.9 3.0 11.0 S 0.00 29.678
02/12/2003 2:00 p 26.8 26.8 26.8 27.4 26.0 29 -1.2 4.0 12.0 SSE 0.00 29.693
02/12/2003 2:30 p 25.9 25.9 25.9 26.1 25.7 35 2.0 4.0 13.0 SSE 0.00 29.701
02/12/2003 3:00 p 25.5 25.5 25.5 25.8 25.1 30 -1.6 4.0 12.0 SSE 0.00 29.709
02/12/2003 3:30 p 24.8 24.8 24.8 25.1 24.6 31 -1.5 4.0 13.0 SSE 0.00 29.708
02/12/2003 4:00 p 24.4 24.4 24.4 24.6 24.1 31 -1.9 3.0 13.0 SSE 0.00 29.718
02/12/2003 4:30 p 23.7 23.7 23.7 24.1 23.4 30 -3.2 3.0 9.0 SSE 0.00 29.726
02/12/2003 5:00 p 22.9 22.9 22.9 23.5 22.3 33 -1.9 3.0 11.0 SSE 0.00 29.738
02/12/2003 5:30 p 21.9 21.9 21.9 22.4 21.3 34 -2.2 3.0 9.0 SSE 0.00 29.747
02/12/2003 6:00 p 20.8 20.8 20.8 21.3 20.4 39 -0.2 2.0 7.0 SSE 0.00 29.762
02/12/2003 6:30 p 20.1 20.1 20.1 20.5 19.7 40 -0.3 2.0 7.0 SSE 0.00 29.777
02/12/2003 7:00 p 19.5 19.5 19.5 19.7 19.3 41 -0.4 1.0 6.0 SSE 0.00 29.789
02/12/2003 7:30 p 19.0 19.0 19.0 19.4 18.7 44 0.7 2.0 7.0 SSE 0.00 29.792
02/12/2003 8:00 p 18.6 18.6 18.6 18.9 18.4 48 2.2 1.0 5.0 SSE 0.00 29.799
02/12/2003 8:30 p 17.9 17.9 17.9 18.6 16.8 52 3.3 1.0 5.0 SSE 0.00 29.806
02/12/2003 9:00 p 15.7 15.7 15.7 16.8 14.7 56 2.8 0.0 2.0 SSE 0.00 29.811
02/12/2003 9:30 p 13.7 13.7 13.7 14.7 12.8 59 2.0 0.0 0.0 --- 0.00 29.817
02/12/2003 10:00 p 12.1 12.1 12.1 12.8 11.3 65 2.6 0.0 0.0 --- 0.00 29.823
02/12/2003 10:30 p 11.0 11.0 11.0 11.4 10.6 66 1.9 0.0 0.0 --- 0.00 29.821
02/12/2003 11:00 p 10.3 10.3 10.3 10.9 9.9 68 1.9 0.0 0.0 --- 0.00 29.821
02/12/2003 11:30 p 9.6 9.6 9.6 10.1 8.7 71 2.1 0.0 0.0 --- 0.00 29.825
02/13/2003 12:00 a 8.3 8.3 8.3 8.7 7.8 73 1.4 0.0 0.0 --- 0.00 29.824
02/13/2003 12:30 a 7.5 7.5 7.5 7.9 7.2 74 1.0 0.0 2.0 SSE 0.00 29.823
02/13/2003 1:00 a 10.2 10.2 10.2 14.0 7.6 61 -0.6 0.0 6.0 SSE 0.00 29.815
02/13/2003 1:30 a 14.7 14.7 14.7 15.2 14.0 56 1.9 0.0 4.0 ESE 0.00 29.810
02/13/2003 2:00 a 14.6 14.6 14.6 15.1 14.2 57 2.1 0.0 2.0 S 0.00 29.807
02/13/2003 2:30 a 14.6 14.6 14.6 14.9 14.3 57 2.1 0.0 4.0 E 0.00 29.804
02/13/2003 3:00 a 14.6 14.6 14.6 15.2 13.8 58 2.5 0.0 4.0 SSE 0.00 29.796
02/13/2003 3:30 a 13.7 13.7 13.7 13.9 13.5 58 1.7 0.0 2.0 SE 0.00 29.794
02/13/2003 4:00 a 13.2 13.2 13.2 13.7 12.9 59 1.6 0.0 2.0 SE 0.00 29.805
02/13/2003 4:30 a 14.0 14.0 14.0 14.4 13.7 56 1.2 0.0 3.0 SSE 0.00 29.811
02/13/2003 5:00 a 13.6 13.6 13.6 14.3 13.2 58 1.6 0.0 3.0 SSW 0.00 29.819
02/13/2003 5:30 a 13.3 13.3 13.3 13.6 12.9 58 1.3 0.0 2.0 SSW 0.00 29.823
02/13/2003 6:00 a 12.2 12.2 12.2 13.0 11.8 60 1.0 0.0 1.0 --- 0.00 29.829
02/13/2003 6:30 a 11.6 11.6 11.6 12.2 10.9 62 1.1 0.0 1.0 SSW 0.00 29.838
02/13/2003 7:00 a 10.7 10.7 10.7 11.1 10.2 63 0.6 0.0 1.0 --- 0.00 29.839
02/13/2003 7:30 a 12.1 12.1 12.1 15.6 10.2 54 -1.3 0.0 0.0 --- 0.00 29.847
02/13/2003 8:00 a 18.4 18.4 18.4 22.7 15.6 42 -0.8 0.0 2.0 SSW 0.00 29.849
02/13/2003 8:30 a 27.7 27.7 27.7 30.1 22.7 32 1.7 1.0 6.0 SSE 0.00 29.852
02/13/2003 9:00 a 28.4 28.4 28.4 29.7 26.6 32 2.3 3.0 11.0 SSE 0.00 29.853
02/13/2003 9:30 a 25.6 25.6 25.6 27.7 24.2 38 3.5 3.0 10.0 SSE 0.00 29.859
02/13/2003 10:00 a 24.1 24.1 24.1 25.8 23.1 35 0.4 3.0 11.0 SSE 0.00 29.856
02/13/2003 10:30 a 25.6 25.6 25.6 26.5 24.7 37 3.0 3.0 10.0 SSE 0.00 29.853
02/13/2003 11:00 a 27.2 27.2 27.2 29.1 25.2 33 1.9 3.0 9.0 SSE 0.00 29.840
02/13/2003 11:30 a 27.4 27.4 27.4 28.3 26.6 34 2.7 3.0 12.0 SSE 0.00 29.827
02/13/2003 12:00 p 27.4 27.4 27.4 28.9 26.1 34 2.7 4.0 15.0 SSE 0.00 29.819
02/13/2003 12:30 p 28.6 28.6 28.6 30.6 26.3 33 3.2 4.0 18.0 SSE 0.00 29.803
02/13/2003 1:00 p 28.0 28.0 28.0 28.8 26.2 32 2.0 4.0 13.0 SSE 0.00 29.800
02/13/2003 1:30 p 28.5 28.5 28.5 29.7 27.3 34 3.7 4.0 21.0 SSE 0.00 29.784
02/13/2003 2:00 p 26.5 26.5 26.5 27.6 25.6 34 1.9 4.0 19.0 SSE 0.00 29.770
02/13/2003 2:30 p 27.7 27.7 27.7 28.8 26.7 33 2.4 4.0 15.0 SSE 0.00 29.767
02/13/2003 3:00 p 26.9 26.9 26.9 27.5 26.2 33 1.7 4.0 15.0 SSE 0.00 29.771
02/13/2003 3:30 p 25.0 25.0 25.0 26.2 24.7 37 2.4 4.0 16.0 SSE 0.00 29.776
02/13/2003 4:00 p 24.4 24.4 24.4 25.0 23.8 38 2.4 4.0 15.0 SSE 0.00 29.779
02/13/2003 4:30 p 23.8 23.8 23.8 24.0 23.6 40 3.0 3.0 10.0 SSE 0.00 29.791
02/13/2003 5:00 p 23.2 23.2 23.2 23.6 22.5 39 1.9 2.0 10.0 SSE 0.00 29.803
02/13/2003 5:30 p 22.2 22.2 22.2 22.7 21.7 40 1.6 3.0 15.0 SSE 0.00 29.820
02/13/2003 6:00 p 21.4 21.4 21.4 21.8 20.9 42 1.9 3.0 11.0 SSE 0.00 29.841
02/13/2003 6:30 p 20.5 20.5 20.5 20.9 20.4 43 1.6 2.0 9.0 SSE 0.00 29.863
02/13/2003 7:00 p 19.7 19.7 19.7 20.5 18.6 50 4.1 2.0 8.0 SSE 0.00 29.876
02/13/2003 7:30 p 17.8 17.8 17.8 18.6 17.2 55 4.4 1.0 4.0 SSE 0.00 29.887
02/13/2003 8:00 p 16.4 16.4 16.4 17.2 15.6 58 4.2 1.0 5.0 S 0.00 29.901
02/13/2003 8:30 p 15.6 15.6 15.6 15.9 14.9 58 3.5 0.0 3.0 S 0.00 29.917
02/13/2003 9:00 p 14.6 14.6 14.6 14.9 14.2 58 2.5 0.0 2.0 S 0.00 29.925
02/13/2003 9:30 p 12.8 12.8 12.8 14.2 12.0 63 2.6 0.0 1.0 S 0.00 29.929
02/13/2003 10:00 p 11.4 11.4 11.4 12.1 11.1 60 0.2 0.0 4.0 S 0.00 29.942
02/13/2003 10:30 p 12.1 12.1 12.1 12.6 11.7 59 0.5 0.0 1.0 --- 0.00 29.950
02/13/2003 11:00 p 11.9 11.9 11.9 12.2 11.7 57 -0.4 0.0 2.0 S 0.00 29.958
02/13/2003 11:30 p 12.3 12.3 12.3 12.8 12.1 56 -0.4 0.0 4.0 S 0.00 29.952
02/14/2003 12:00 a 12.2 12.2 12.2 12.8 11.1 59 0.6 0.0 2.0 SSW 0.00 29.966
02/14/2003 12:30 a 10.0 10.0 10.0 11.1 9.2 63 -0.1 0.0 0.0 --- 0.00 29.972
02/14/2003 1:00 a 9.2 9.2 9.2 9.6 8.8 64 -0.5 0.0 2.0 SSW 0.00 29.977
02/14/2003 1:30 a 8.9 8.9 8.9 9.0 8.7 63 -1.1 0.0 0.0 --- 0.00 29.982
02/14/2003 2:00 a 8.6 8.6 8.6 8.9 8.2 65 -0.7 0.0 1.0 --- 0.00 29.989
02/14/2003 2:30 a 7.8 7.8 7.8 8.2 6.9 68 -0.5 0.0 0.0 --- 0.00 29.988
02/14/2003 3:00 a 6.0 6.0 6.0 6.9 5.3 72 -1.1 0.0 1.0 --- 0.00 29.998
02/14/2003 3:30 a 5.0 5.0 5.0 5.3 4.9 74 -1.5 0.0 0.0 --- 0.00 29.990
02/14/2003 4:00 a 5.1 5.1 5.1 5.3 4.9 73 -1.6 0.0 0.0 --- 0.00 29.990
02/14/2003 4:30 a 5.3 5.3 5.3 6.0 5.0 71 -2.0 0.0 2.0 SSW 0.00 30.000
02/14/2003 5:00 a 6.5 6.5 6.5 6.8 6.0 70 -1.2 0.0 0.0 --- 0.00 30.015
02/14/2003 5:30 a 5.0 5.0 5.0 6.0 4.0 74 -1.5 0.0 0.0 --- 0.00 30.019
02/14/2003 6:00 a 3.6 3.6 3.6 4.0 3.2 76 -2.3 0.0 0.0 --- 0.00 30.025
02/14/2003 6:30 a 3.1 3.1 3.1 3.4 2.5 76 -2.7 0.0 0.0 --- 0.00 30.048
02/14/2003 7:00 a 3.0 3.0 3.0 3.4 2.3 76 -2.8 0.0 0.0 --- 0.00 30.056
02/14/2003 7:30 a 5.4 5.4 5.4 8.9 3.3 72 -1.7 0.0 0.0 --- 0.00 30.082
02/14/2003 8:00 a 12.8 12.8 12.8 17.9 9.0 58 0.8 0.0 0.0 --- 0.00 30.096
02/14/2003 8:30 a 24.9 24.9 24.9 30.1 18.0 36 1.7 0.0 2.0 SSW 0.00 30.099
02/14/2003 9:00 a 29.8 29.8 29.8 31.0 28.9 35 5.5 1.0 5.0 S 0.00 30.105
02/14/2003 9:30 a 29.6 29.6 29.6 30.8 28.4 35 5.3 1.0 7.0 SSE 0.00 30.085
02/14/2003 10:00 a 30.4 30.4 30.4 32.5 28.2 33 4.8 2.0 7.0 S 0.00 30.090
02/14/2003 10:30 a 29.0 29.0 29.0 32.3 27.3 34 4.2 3.0 14.0 SSE 0.00 30.087
02/14/2003 11:00 a 29.1 29.1 29.1 31.5 27.3 31 2.3 4.0 13.0 SSE 0.00 30.074
02/14/2003 11:30 a 30.4 30.4 30.4 31.2 29.3 32 4.1 3.0 12.0 SSE 0.00 30.062
02/14/2003 12:00 p 33.1 33.1 33.1 34.2 30.9 28 3.6 2.0 6.0 SSE 0.00 30.050
02/14/2003 12:30 p 35.0 35.0 35.0 35.8 34.2 26 3.6 2.0 8.0 SSE 0.00 30.048
02/14/2003 1:00 p 33.8 33.8 33.8 36.8 31.9 31 6.4 2.0 6.0 SSE 0.00 30.041
02/14/2003 1:30 p 31.4 31.4 31.4 32.1 31.0 30 3.6 2.0 8.0 SSE 0.00 30.032
02/14/2003 2:00 p 31.5 31.5 31.5 31.7 31.3 30 3.7 1.0 6.0 SSE 0.00 30.017
02/14/2003 2:30 p 31.0 31.0 31.0 31.4 30.8 27 0.9 2.0 8.0 SSE 0.00 30.016
02/14/2003 3:00 p 30.6 30.6 30.6 31.2 30.0 27 0.6 3.0 12.0 SSE 0.00 30.021
02/14/2003 3:30 p 29.6 29.6 29.6 30.0 29.3 30 2.0 2.0 7.0 SSE 0.00 30.028
02/14/2003 4:00 p 29.4 29.4 29.4 29.5 29.3 32 3.2 1.0 7.0 SSE 0.00 30.033
02/14/2003 4:30 p 29.1 29.1 29.1 29.3 28.6 33 3.6 1.0 5.0 SSE 0.00 30.034
02/14/2003 5:00 p 27.8 27.8 27.8 28.6 26.9 38 5.5 0.0 3.0 S 0.00 30.034
02/14/2003 5:30 p 26.3 26.3 26.3 26.9 25.9 41 5.8 0.0 2.0 S 0.00 30.041
02/14/2003 6:00 p 25.2 25.2 25.2 25.9 24.7 43 5.9 0.0 2.0 S 0.00 30.045
02/14/2003 6:30 p 24.0 24.0 24.0 24.7 23.2 43 4.8 0.0 0.0 --- 0.00 30.057
02/14/2003 7:00 p 22.6 22.6 22.6 23.2 22.2 52 7.6 0.0 0.0 --- 0.00 30.053
02/14/2003 7:30 p 22.0 22.0 22.0 22.2 21.8 51 6.7 0.0 0.0 --- 0.00 30.051
02/14/2003 8:00 p 21.8 21.8 21.8 22.3 21.4 57 8.9 0.0 0.0 --- 0.00 30.043
02/14/2003 8:30 p 21.3 21.3 21.3 21.5 21.2 60 9.6 0.0 0.0 --- 0.00 30.049
02/14/2003 9:00 p 21.2 21.2 21.2 21.5 21.0 52 6.3 0.0 0.0 --- 0.00 30.050
02/14/2003 9:30 p 21.2 21.2 21.2 21.6 20.6 57 8.4 0.0 0.0 --- 0.00 30.049
02/14/2003 10:00 p 21.0 21.0 21.0 21.2 20.7 64 10.7 0.0 0.0 --- 0.00 30.054
02/14/2003 10:30 p 20.9 20.9 20.9 21.2 20.6 64 10.7 0.0 0.0 --- 0.00 30.042
02/14/2003 11:00 p 21.5 21.5 21.5 21.9 21.1 64 11.2 0.0 0.0 --- 0.00 30.039
02/14/2003 11:30 p 22.4 22.4 22.4 22.6 21.9 64 12.1 0.0 0.0 --- 0.00 30.025
02/15/2003 12:00 a 22.6 22.6 22.6 23.1 22.3 65 12.6 0.0 0.0 --- 0.00 30.031
02/15/2003 12:30 a 23.0 23.0 23.0 23.2 23.0 62 11.9 0.0 0.0 --- 0.00 30.036
02/15/2003 1:00 a 23.3 23.3 23.3 23.6 23.1 62 12.2 0.0 0.0 --- 0.00 30.044
02/15/2003 1:30 a 23.9 23.9 23.9 24.2 23.6 64 13.5 0.0 0.0 --- 0.00 30.039
02/15/2003 2:00 a 24.2 24.2 24.2 24.5 24.0 60 12.3 0.0 0.0 --- 0.00 30.047
02/15/2003 2:30 a 24.9 24.9 24.9 25.2 24.5 57 11.8 0.0 0.0 --- 0.00 30.038
02/15/2003 3:00 a 25.3 25.3 25.3 25.4 25.2 55 11.4 0.0 0.0 --- 0.00 30.041
02/15/2003 3:30 a 25.7 25.7 25.7 25.9 25.4 52 10.5 0.0 0.0 --- 0.00 30.046
02/15/2003 4:00 a 25.9 25.9 25.9 26.0 25.8 49 9.4 0.0 2.0 S 0.00 30.040
02/15/2003 4:30 a 25.8 25.8 25.8 26.0 25.6 50 9.7 0.0 2.0 S 0.00 30.041
02/15/2003 5:00 a 25.5 25.5 25.5 25.7 25.2 47 8.1 0.0 2.0 S 0.00 30.056
02/15/2003 5:30 a 24.8 24.8 24.8 25.2 24.4 47 7.4 0.0 2.0 W 0.00 30.058
02/15/2003 6:00 a 24.1 24.1 24.1 24.4 23.8 47 6.8 0.0 2.0 WNW 0.00 30.081
02/15/2003 6:30 a 23.5 23.5 23.5 23.8 23.1 49 7.2 0.0 2.0 W 0.00 30.103
02/15/2003 7:00 a 22.9 22.9 22.9 23.1 22.8 47 5.7 1.0 4.0 WSW 0.00 30.116
02/15/2003 7:30 a 22.8 22.8 22.8 22.9 22.5 53 8.2 1.0 5.0 NW 0.00 30.125
02/15/2003 8:00 a 22.4 22.4 22.4 22.8 22.3 57 9.5 0.0 3.0 WSW 0.00 30.142
02/15/2003 8:30 a 23.0 23.0 23.0 23.3 22.8 61 11.6 1.0 3.0 NW 0.00 30.153
02/15/2003 9:00 a 23.2 23.2 23.2 23.8 22.8 52 8.2 1.0 3.0 NW 0.00 30.158
02/15/2003 9:30 a 24.8 24.8 24.8 25.6 23.8 46 7.0 1.0 3.0 NW 0.00 30.161
02/15/2003 10:00 a 25.9 25.9 25.9 26.5 25.4 45 7.5 0.0 3.0 NNW 0.00 30.165
02/15/2003 10:30 a 26.2 26.2 26.2 26.6 26.1 44 7.3 1.0 4.0 SW 0.00 30.181
02/15/2003 11:00 a 27.6 27.6 27.6 28.4 26.6 40 6.5 1.0 3.0 NW 0.00 30.174
02/15/2003 11:30 a 28.8 28.8 28.8 29.9 28.1 38 6.4 1.0 3.0 WNW 0.00 30.192
02/15/2003 12:00 p 29.3 29.3 29.3 29.7 28.9 38 6.9 1.0 5.0 WSW 0.00 30.193
02/15/2003 12:30 p 29.2 29.2 29.2 29.5 28.9 37 6.2 1.0 5.0 WSW 0.00 30.181
02/15/2003 1:00 p 29.2 29.2 29.2 29.5 29.1 36 5.6 1.0 5.0 SW 0.00 30.182
02/15/2003 1:30 p 29.3 29.3 29.3 29.6 29.0 36 5.7 1.0 7.0 SSE 0.00 30.190
02/15/2003 2:00 p 29.1 29.1 29.1 29.2 29.0 36 5.5 1.0 6.0 SSW 0.00 30.186
02/15/2003 2:30 p 29.2 29.2 29.2 29.4 28.6 36 5.6 1.0 4.0 SSW 0.00 30.191
02/15/2003 3:00 p 28.5 28.5 28.5 28.8 28.2 35 4.3 1.0 4.0 NNW 0.00 30.196
02/15/2003 3:30 p 28.3 28.3 28.3 28.5 28.1 35 4.2 1.0 4.0 N 0.00 30.205
02/15/2003 4:00 p 27.8 27.8 27.8 28.2 27.4 36 4.3 1.0 3.0 NNW 0.00 30.208
02/15/2003 4:30 p 26.6 26.6 26.6 27.4 25.4 35 2.6 1.0 3.0 WNW 0.00 30.228
02/15/2003 5:00 p 24.6 24.6 24.6 25.4 24.2 35 0.9 0.0 2.0 WSW 0.00 30.256
02/15/2003 5:30 p 23.3 23.3 23.3 24.2 22.5 35 -0.3 0.0 3.0 WSW 0.00 30.271
02/15/2003 6:00 p 21.7 21.7 21.7 22.5 21.0 38 0.0 0.0 3.0 WSW 0.00 30.287
02/15/2003 6:30 p 20.6 20.6 20.6 21.0 20.2 38 -1.0 0.0 3.0 W 0.00 30.313
02/15/2003 7:00 p 19.8 19.8 19.8 20.2 19.5 37 -2.3 0.0 3.0 W 0.00 30.332
02/15/2003 7:30 p 19.3 19.3 19.3 19.5 19.2 37 -2.7 0.0 3.0 WSW 0.00 30.351
02/15/2003 8:00 p 18.9 18.9 18.9 19.3 18.5 37 -3.1 1.0 5.0 WSW 0.00 30.360
02/15/2003 8:30 p 17.9 17.9 17.9 18.5 17.6 33 -6.3 1.0 4.0 WSW 0.00 30.381
02/15/2003 9:00 p 17.3 17.3 17.3 17.6 16.9 37 -4.5 0.0 3.0 WSW 0.00 30.384
02/15/2003 9:30 p 16.5 16.5 16.5 17.0 16.2 37 -5.2 0.0 3.0 WSW 0.00 30.398
02/15/2003 10:00 p 15.9 15.9 15.9 16.2 15.8 36 -6.3 0.0 3.0 WSW 0.00 30.413
02/15/2003 10:30 p 15.7 15.7 15.7 15.8 15.5 34 -7.7 1.0 3.0 NNW 0.00 30.411
02/15/2003 11:00 p 15.3 15.3 15.3 15.5 15.0 33 -8.6 1.0 2.0 WNW 0.00 30.421
02/15/2003 11:30 p 14.6 14.6 14.6 15.0 14.3 33 -9.3 1.0 4.0 WNW 0.00 30.437
02/16/2003 12:00 a 14.2 14.2 14.2 14.4 14.1 32 -10.2 1.0 4.0 WNW 0.00 30.455
02/16/2003 12:30 a 14.0 14.0 14.0 14.1 14.0 33 -9.8 0.0 2.0 SW 0.00 30.468
02/16/2003 1:00 a 14.1 14.1 14.1 14.1 14.0 33 -9.7 0.0 2.0 WSW 0.00 30.473
02/16/2003 1:30 a 14.0 14.0 14.0 14.1 13.9 34 -9.2 0.0 3.0 NW 0.00 30.455
02/16/2003 2:00 a 13.9 13.9 13.9 14.0 13.8 36 -8.1 1.0 3.0 NW 0.00 30.466
02/16/2003 2:30 a 13.8 13.8 13.8 14.0 13.5 34 -9.4 0.0 3.0 W 0.00 30.460
02/16/2003 3:00 a 13.3 13.3 13.3 13.6 13.0 34 -9.8 1.0 4.0 W 0.00 30.460
02/16/2003 3:30 a 12.8 12.8 12.8 13.0 12.6 33 -10.9 1.0 4.0 WNW 0.00 30.464
02/16/2003 4:00 a 12.5 12.5 12.5 12.7 12.4 34 -10.5 1.0 4.0 WSW 0.00 30.480
02/16/2003 4:30 a 12.3 12.3 12.3 12.4 12.2 35 -10.1 0.0 3.0 WSW 0.00 30.491
02/16/2003 5:00 a 12.1 12.1 12.1 12.3 11.8 36 -9.7 1.0 5.0 SSW 0.00 30.515
02/16/2003 5:30 a 11.7 11.7 11.7 11.8 11.5 36 -10.1 0.0 3.0 WSW 0.00 30.520
02/16/2003 6:00 a 11.2 11.2 11.2 11.5 10.8 38 -9.4 0.0 3.0 SW 0.00 30.518
02/16/2003 6:30 a 10.9 10.9 10.9 11.0 10.7 38 -9.7 1.0 3.0 SW 0.00 30.523
02/16/2003 7:00 a 10.4 10.4 10.4 10.8 10.0 37 -10.7 1.0 3.0 W 0.00 30.522
02/16/2003 7:30 a 9.6 9.6 9.6 10.1 9.3 34 -13.1 1.0 4.0 NW 0.00 30.519
02/16/2003 8:00 a 9.4 9.4 9.4 9.7 9.2 33 -13.9 1.0 4.0 W 0.00 30.517
02/16/2003 8:30 a 9.6 9.6 9.6 9.8 9.5 32 -14.3 1.0 4.0 NW 0.00 30.523
02/16/2003 9:00 a 10.2 10.2 10.2 10.4 9.8 33 -13.2 1.0 3.0 WSW 0.00 30.533
02/16/2003 9:30 a 10.5 10.5 10.5 10.9 10.2 30 -14.8 1.0 3.0 SSW 0.00 30.528
02/16/2003 10:00 a 11.9 11.9 11.9 13.2 10.9 27 -15.6 1.0 3.0 SW 0.00 30.540
02/16/2003 10:30 a 14.3 14.3 14.3 14.8 13.2 27 -13.6 1.0 5.0 SSE 0.00 30.538
02/16/2003 11:00 a 14.8 14.8 14.8 15.6 14.4 27 -13.1 0.0 2.0 N 0.00 30.524
02/16/2003 11:30 a 16.1 16.1 16.1 16.6 15.5 24 -14.3 1.0 4.0 SSE 0.00 30.517
02/16/2003 12:00 p 16.4 16.4 16.4 16.8 15.9 25 -13.3 2.0 5.0 NW 0.00 30.512
02/16/2003 12:30 p 15.9 15.9 15.9 16.5 15.5 25 -13.7 2.0 5.0 NW 0.00 30.493
02/16/2003 1:00 p 15.8 15.8 15.8 16.2 15.3 27 -12.2 1.0 5.0 W 0.00 30.487
02/16/2003 1:30 p 15.1 15.1 15.1 15.3 14.8 27 -12.9 1.0 5.0 SW 0.00 30.487
02/16/2003 2:00 p 14.9 14.9 14.9 15.2 14.6 27 -13.0 1.0 4.0 NW 0.00 30.489
02/16/2003 2:30 p 15.1 15.1 15.1 15.3 15.0 27 -12.9 1.0 3.0 W 0.00 30.482
02/16/2003 3:00 p 14.6 14.6 14.6 15.0 14.4 27 -13.3 1.0 4.0 NNW 0.00 30.481
02/16/2003 3:30 p 14.0 14.0 14.0 14.7 12.8 58 2.0 1.0 4.0 W 0.00 30.477
02/16/2003 4:00 p 12.6 12.6 12.6 12.8 12.4 66 3.4 1.0 3.0 WNW 0.00 30.481
02/16/2003 4:30 p 12.2 12.2 12.2 12.4 12.0 70 4.3 1.0 4.0 WNW 0.00 30.470
02/16/2003 5:00 p 11.7 11.7 11.7 12.1 11.3 74 5.0 1.0 5.0 NW 0.00 30.459
02/16/2003 5:30 p 11.1 11.1 11.1 11.3 10.8 76 5.0 1.0 4.0 NNW 0.00 30.450
02/16/2003 6:00 p 10.7 10.7 10.7 10.9 10.6 78 5.2 1.0 5.0 NW 0.00 30.440
02/16/2003 6:30 p 10.8 10.8 10.8 10.9 10.7 78 5.3 1.0 3.0 NW 0.00 30.429
02/16/2003 7:00 p 10.9 10.9 10.9 10.9 10.8 79 5.7 1.0 3.0 WNW 0.00 30.407
02/16/2003 7:30 p 10.9 10.9 10.9 11.0 10.9 79 5.7 1.0 3.0 WNW 0.00 30.399
02/16/2003 8:00 p 11.1 11.1 11.1 11.2 11.0 80 6.1 1.0 4.0 NW 0.00 30.393
02/16/2003 8:30 p 11.1 11.1 11.1 11.2 11.1 80 6.1 1.0 5.0 WNW 0.00 30.390
02/16/2003 9:00 p 11.2 11.2 11.2 11.2 11.1 80 6.2 1.0 4.0 NW 0.00 30.391
02/16/2003 9:30 p 11.2 11.2 11.2 11.2 11.2 80 6.2 1.0 4.0 NW 0.00 30.386
02/16/2003 10:00 p 11.2 11.2 11.2 11.3 11.2 80 6.2 1.0 4.0 NW 0.00 30.376
02/16/2003 10:30 p 11.4 11.4 11.4 11.5 11.2 80 6.4 1.0 5.0 NW 0.00 30.365
02/16/2003 11:00 p 11.5 11.5 11.5 11.5 11.4 81 6.8 1.0 5.0 WNW 0.00 30.338
02/16/2003 11:30 p 11.6 11.6 11.6 11.8 11.5 81 6.9 1.0 6.0 NW 0.00 30.315
02/17/2003 12:00 a 11.9 11.9 11.9 12.1 11.7 81 7.2 2.0 6.0 NW 0.00 30.307
02/17/2003 12:30 a 12.1 12.1 12.1 12.3 12.0 82 7.7 2.0 5.0 NW 0.00 30.290
02/17/2003 1:00 a 12.4 12.4 12.4 12.6 12.2 81 7.7 1.0 6.0 NW 0.00 30.274
02/17/2003 1:30 a 12.7 12.7 12.7 12.9 12.5 82 8.3 2.0 6.0 NW 0.00 30.259
02/17/2003 2:00 a 13.0 13.0 13.0 13.1 12.8 82 8.6 2.0 5.0 NW 0.00 30.238
02/17/2003 2:30 a 13.2 13.2 13.2 13.4 13.1 82 8.7 2.0 6.0 NW 0.00 30.226
02/17/2003 3:00 a 13.6 13.6 13.6 13.8 13.4 83 9.4 2.0 5.0 NW 0.00 30.204
02/17/2003 3:30 a 13.9 13.9 13.9 14.1 13.7 83 9.7 2.0 6.0 NW 0.00 30.186
02/17/2003 4:00 a 14.2 14.2 14.2 14.3 14.1 83 10.0 2.0 5.0 NW 0.00 30.181
02/17/2003 4:30 a 14.4 14.4 14.4 14.5 14.2 83 10.2 2.0 5.0 NW 0.00 30.168
02/17/2003 5:00 a 14.8 14.8 14.8 15.3 14.5 84 10.9 2.0 7.0 NW 0.00 30.139
02/17/2003 5:30 a 15.8 15.8 15.8 16.3 15.3 85 12.1 3.0 7.0 NW 0.00 30.115
02/17/2003 6:00 a 16.5 16.5 16.5 16.7 16.2 85 12.8 3.0 7.0 NW 0.00 30.082
02/17/2003 6:30 a 17.0 17.0 17.0 17.3 16.7 85 13.3 3.0 12.0 NW 0.00 30.062
02/17/2003 7:00 a 17.7 17.7 17.7 18.1 17.3 86 14.2 3.0 11.0 NW 0.00 30.055
02/17/2003 7:30 a 18.6 18.6 18.6 19.1 18.1 86 15.1 3.0 9.0 NW 0.00 30.048
02/17/2003 8:00 a 19.5 19.5 19.5 19.9 19.1 86 16.0 3.0 7.0 NW 0.00 30.056
02/17/2003 8:30 a 20.4 20.4 20.4 20.8 19.9 85 16.6 3.0 8.0 NW 0.00 30.061
02/17/2003 9:00 a 20.9 20.9 20.9 21.0 20.6 85 17.1 2.0 7.0 NW 0.00 30.053
02/17/2003 9:30 a 20.6 20.6 20.6 20.8 20.5 86 17.1 2.0 8.0 NW 0.00 30.030
02/17/2003 10:00 a 20.9 20.9 20.9 20.9 20.8 86 17.4 2.0 7.0 W 0.00 30.020
02/17/2003 10:30 a 21.1 21.1 21.1 21.3 20.8 85 17.3 2.0 7.0 W 0.00 30.025
02/17/2003 11:00 a 21.5 21.5 21.5 21.6 21.1 86 18.0 2.0 6.0 NW 0.00 30.013
02/17/2003 11:30 a 21.9 21.9 21.9 22.2 21.6 87 18.6 1.0 5.0 NW 0.00 30.025
02/17/2003 12:00 p 22.5 22.5 22.5 22.9 22.2 86 19.0 2.0 5.0 WNW 0.00 29.978
02/17/2003 12:30 p 24.0 24.0 24.0 25.1 22.9 85 20.2 2.0 6.0 NW 0.00 29.948
02/17/2003 1:00 p 25.4 25.4 25.4 26.1 25.0 85 21.5 2.0 7.0 NW 0.00 29.927
02/17/2003 1:30 p 26.4 26.4 26.4 26.6 26.0 85 22.5 2.0 5.0 NW 0.00 29.923
02/17/2003 2:00 p 26.2 26.2 26.2 26.4 26.0 86 22.6 1.0 6.0 WNW 0.00 29.938
02/17/2003 2:30 p 26.1 26.1 26.1 26.3 25.9 86 22.5 2.0 6.0 NW 0.00 29.908
02/17/2003 3:00 p 25.9 25.9 25.9 26.0 25.6 87 22.6 1.0 5.0 NW 0.00 29.914
02/17/2003 3:30 p 25.8 25.8 25.8 26.0 25.6 88 22.7 1.0 5.0 NW 0.00 29.937
02/17/2003 4:00 p 25.2 25.2 25.2 25.6 25.0 89 22.4 1.0 5.0 NW 0.00 29.936
02/17/2003 4:30 p 24.7 24.7 24.7 25.0 24.4 89 21.9 1.0 5.0 NW 0.00 29.920
02/17/2003 5:00 p 24.1 24.1 24.1 24.4 23.8 89 21.3 2.0 7.0 NW 0.00 29.907
02/17/2003 5:30 p 23.6 23.6 23.6 23.9 23.5 89 20.8 1.0 6.0 NW 0.00 29.903
02/17/2003 6:00 p 23.3 23.3 23.3 23.5 23.1 88 20.3 1.0 5.0 W 0.00 29.907
02/17/2003 6:30 p 23.2 23.2 23.2 23.3 23.1 88 20.2 1.0 5.0 W 0.00 29.915
02/17/2003 7:00 p 23.4 23.4 23.4 23.4 23.3 88 20.4 1.0 5.0 WNW 0.00 29.916
02/17/2003 7:30 p 23.4 23.4 23.4 23.5 23.3 88 20.4 1.0 4.0 WSW 0.00 29.910
02/17/2003 8:00 p 23.3 23.3 23.3 23.4 23.3 88 20.3 1.0 5.0 WSW 0.00 29.910
02/17/2003 8:30 p 23.3 23.3 23.3 23.3 23.2 88 20.3 1.0 4.0 WSW 0.00 29.912
02/17/2003 9:00 p 22.8 22.8 22.8 23.2 22.4 88 19.8 1.0 4.0 SSW 0.00 29.905
02/17/2003 9:30 p 22.2 22.2 22.2 22.5 22.0 88 19.2 1.0 4.0 W 0.00 29.896
02/17/2003 10:00 p 21.9 21.9 21.9 22.0 21.7 88 18.9 1.0 4.0 W 0.00 29.885
02/17/2003 10:30 p 21.6 21.6 21.6 21.8 21.6 88 18.6 1.0 4.0 W 0.00 29.886
02/17/2003 11:00 p 22.0 22.0 22.0 22.1 21.7 88 19.0 1.0 6.0 SW 0.00 29.879
02/17/2003 11:30 p 22.0 22.0 22.0 22.1 22.0 88 19.0 0.0 3.0 SSW 0.00 29.879
02/18/2003 12:00 a 22.0 22.0 22.0 22.1 22.0 88 19.0 0.0 3.0 SW 0.00 29.882
02/18/2003 12:30 a 22.1 22.1 22.1 22.3 22.0 88 19.1 0.0 4.0 SW 0.00 29.890
02/18/2003 1:00 a 22.4 22.4 22.4 22.6 22.2 88 19.4 0.0 3.0 S 0.00 29.876
02/18/2003 1:30 a 22.8 22.8 22.8 22.9 22.6 88 19.8 0.0 4.0 SSW 0.00 29.867
02/18/2003 2:00 a 23.0 23.0 23.0 23.3 22.7 88 20.0 1.0 3.0 W 0.00 29.874
02/18/2003 2:30 a 23.5 23.5 23.5 23.6 23.3 88 20.5 0.0 3.0 SSE 0.00 29.878
02/18/2003 3:00 a 23.6 23.6 23.6 23.6 23.5 88 20.6 0.0 2.0 WSW 0.00 29.873
02/18/2003 3:30 a 23.6 23.6 23.6 23.7 23.5 88 20.6 0.0 1.0 SSW 0.00 29.865
02/18/2003 4:00 a 23.7 23.7 23.7 23.8 23.6 88 20.7 0.0 1.0 SSW 0.00 29.856
02/18/2003 4:30 a 23.7 23.7 23.7 23.8 23.7 88 20.7 0.0 3.0 SSE 0.00 29.863
02/18/2003 5:00 a 23.6 23.6 23.6 23.8 23.5 88 20.6 0.0 2.0 SSE 0.00 29.856
02/18/2003 5:30 a 23.5 23.5 23.5 23.5 23.4 88 20.5 0.0 1.0 SSE 0.00 29.858
02/18/2003 6:00 a 23.5 23.5 23.5 23.5 23.5 88 20.5 0.0 3.0 SSE 0.00 29.865
02/18/2003 6:30 a 23.5 23.5 23.5 23.6 23.5 88 20.5 0.0 5.0 SE 0.00 29.874
02/18/2003 7:00 a 23.7 23.7 23.7 23.9 23.6 88 20.7 0.0 2.0 SE 0.00 29.885
02/18/2003 7:30 a 24.1 24.1 24.1 24.4 23.9 88 21.1 0.0 2.0 SSE 0.00 29.888
02/18/2003 8:00 a 24.9 24.9 24.9 25.3 24.4 89 22.1 0.0 4.0 SSE 0.00 29.897
02/18/2003 8:30 a 25.8 25.8 25.8 26.5 25.2 89 23.0 0.0 3.0 S 0.00 29.907
02/18/2003 9:00 a 26.8 26.8 26.8 27.3 26.4 90 24.3 0.0 3.0 SSE 0.00 29.909
02/18/2003 9:30 a 27.9 27.9 27.9 28.5 27.3 90 25.4 0.0 2.0 SSE 0.00 29.920
02/18/2003 10:00 a 29.3 29.3 29.3 30.4 28.5 90 26.7 0.0 3.0 SSE 0.00 29.925
02/18/2003 10:30 a 31.4 31.4 31.4